<?xml version='1.0' encoding='UTF-8'?><gpx version="1.1" creator="JPX - https://github.com/jenetics/jpx" xmlns="http://www.topografix.com/GPX/1/1"><trk><trkseg><trkpt lat="49.141272313020735" lon="2.5070599302616112"><ele>74.0</ele><time>2026-04-24T09:01:51.668Z</time></trkpt><trkpt lat="49.14134713831978" lon="2.5070819436249554"><ele>74.0</ele><time>2026-04-24T09:01:54.668Z</time></trkpt><trkpt lat="49.14142077984321" lon="2.5070988051626055"><ele>74.0</ele><time>2026-04-24T09:02:00Z</time></trkpt><trkpt lat="49.14147359004588" lon="2.5070271882147432"><ele>74.0</ele><time>2026-04-24T09:02:05Z</time></trkpt><trkpt lat="49.14148960811338" lon="2.5069339946391778"><ele>74.0</ele><time>2026-04-24T09:02:08Z</time></trkpt><trkpt lat="49.14149159641336" lon="2.5068295580935334"><ele>74.0</ele><time>2026-04-24T09:02:12Z</time></trkpt><trkpt lat="49.14150313586533" lon="2.506729964622545"><ele>74.0</ele><time>2026-04-24T09:02:15Z</time></trkpt><trkpt lat="49.14151791041743" lon="2.5066181433336716"><ele>74.0</ele><time>2026-04-24T09:02:19Z</time></trkpt><trkpt lat="49.141511913876876" lon="2.506500489399087"><ele>74.0</ele><time>2026-04-24T09:02:23Z</time></trkpt><trkpt lat="49.14152886122108" lon="2.5063817899872625"><ele>74.0</ele><time>2026-04-24T09:02:28Z</time></trkpt><trkpt lat="49.14155589596856" lon="2.506281206454546"><ele>74.0</ele><time>2026-04-24T09:02:32Z</time></trkpt><trkpt lat="49.1415676627987" lon="2.506181094599814"><ele>74.0</ele><time>2026-04-24T09:02:34.999Z</time></trkpt><trkpt lat="49.14158018770307" lon="2.506063781653966"><ele>74.0</ele><time>2026-04-24T09:02:38.999Z</time></trkpt><trkpt lat="49.141601363962934" lon="2.5059613366812803"><ele>74.0</ele><time>2026-04-24T09:02:41.999Z</time></trkpt><trkpt lat="49.141619927273105" lon="2.505834028971174"><ele>74.14285714285714</ele><time>2026-04-24T09:02:45.999Z</time></trkpt><trkpt lat="49.141633511936035" lon="2.5057269384991825"><ele>74.28571428571428</ele><time>2026-04-24T09:02:48.999Z</time></trkpt><trkpt lat="49.14166063752687" lon="2.505638882360278"><ele>74.42857142857142</ele><time>2026-04-24T09:02:51.999Z</time></trkpt><trkpt lat="49.14167283157097" lon="2.5055193766391373"><ele>74.57142857142857</ele><time>2026-04-24T09:02:55.999Z</time></trkpt><trkpt lat="49.14168987407479" lon="2.505413219436091"><ele>74.71428571428571</ele><time>2026-04-24T09:02:59.999Z</time></trkpt><trkpt lat="49.1416969180948" lon="2.5052704972513675"><ele>74.85714285714285</ele><time>2026-04-24T09:03:02.999Z</time></trkpt><trkpt lat="49.14171026804125" lon="2.5051663152952774"><ele>75.0</ele><time>2026-04-24T09:03:05.998Z</time></trkpt><trkpt lat="49.14173099704218" lon="2.505034235325568"><ele>75.14285714285714</ele><time>2026-04-24T09:03:09.998Z</time></trkpt><trkpt lat="49.141754520130625" lon="2.504942499884419"><ele>75.28571428571428</ele><time>2026-04-24T09:03:12.998Z</time></trkpt><trkpt lat="49.141770594682754" lon="2.5048465324248426"><ele>75.42857142857142</ele><time>2026-04-24T09:03:15.998Z</time></trkpt><trkpt lat="49.14178861987636" lon="2.5047513666985086"><ele>75.57142857142857</ele><time>2026-04-24T09:03:18.998Z</time></trkpt><trkpt lat="49.14179717302303" lon="2.5046393123911326"><ele>75.71428571428572</ele><time>2026-04-24T09:03:22.998Z</time></trkpt><trkpt lat="49.141834879550856" lon="2.5045446521246424"><ele>75.85714285714285</ele><time>2026-04-24T09:03:29.998Z</time></trkpt><trkpt lat="49.14192444697585" lon="2.50455060633599"><ele>76.0</ele><time>2026-04-24T09:04:16Z</time></trkpt><trkpt lat="49.14199817990975" lon="2.504559561862883"><ele>76.0</ele><time>2026-04-24T09:04:20Z</time></trkpt><trkpt lat="49.142079467005544" lon="2.504540128938316"><ele>76.0</ele><time>2026-04-24T09:04:24Z</time></trkpt><trkpt lat="49.142143592899885" lon="2.504546904725016"><ele>76.0</ele><time>2026-04-24T09:04:27Z</time></trkpt><trkpt lat="49.14220697778332" lon="2.5045436345780314"><ele>76.0</ele><time>2026-04-24T09:04:30Z</time></trkpt><trkpt lat="49.14227986194159" lon="2.5045355476865425"><ele>76.0</ele><time>2026-04-24T09:04:33Z</time></trkpt><trkpt lat="49.142359090347405" lon="2.5045235113940274"><ele>76.0</ele><time>2026-04-24T09:04:37Z</time></trkpt><trkpt lat="49.14242435385774" lon="2.5045180576209884"><ele>76.0</ele><time>2026-04-24T09:04:40.999Z</time></trkpt><trkpt lat="49.142496433927285" lon="2.504518595575471"><ele>76.28571428571428</ele><time>2026-04-24T09:04:44.999Z</time></trkpt><trkpt lat="49.142560687761716" lon="2.5045200572932123"><ele>76.57142857142858</ele><time>2026-04-24T09:04:47.999Z</time></trkpt><trkpt lat="49.14263193317712" lon="2.5045136684387446"><ele>76.85714285714286</ele><time>2026-04-24T09:04:51.999Z</time></trkpt><trkpt lat="49.14270113147726" lon="2.5045158010135418"><ele>77.14285714285714</ele><time>2026-04-24T09:04:55.999Z</time></trkpt><trkpt lat="49.14277796420411" lon="2.504510796815487"><ele>77.42857142857142</ele><time>2026-04-24T09:05:00.999Z</time></trkpt><trkpt lat="49.14284829629188" lon="2.5045065933982715"><ele>77.71428571428572</ele><time>2026-04-24T09:05:04.999Z</time></trkpt><trkpt lat="49.14292772237588" lon="2.5045079621963664"><ele>78.0</ele><time>2026-04-24T09:05:09.999Z</time></trkpt><trkpt lat="49.14300579671523" lon="2.504510258187332"><ele>78.0</ele><time>2026-04-24T09:05:13.998Z</time></trkpt><trkpt lat="49.143071654991864" lon="2.504512747230426"><ele>78.0</ele><time>2026-04-24T09:05:17.998Z</time></trkpt><trkpt lat="49.1431406140275" lon="2.504511017518418"><ele>78.0</ele><time>2026-04-24T09:05:21.998Z</time></trkpt><trkpt lat="49.143210348225" lon="2.5045083147783407"><ele>78.0</ele><time>2026-04-24T09:05:25.998Z</time></trkpt><trkpt lat="49.143281552666046" lon="2.504498871474879"><ele>78.0</ele><time>2026-04-24T09:05:29.998Z</time></trkpt><trkpt lat="49.14336679077" lon="2.5045023482940088"><ele>78.0</ele><time>2026-04-24T09:05:34.998Z</time></trkpt><trkpt lat="49.14343819962382" lon="2.5044842129809126"><ele>78.0</ele><time>2026-04-24T09:05:38.998Z</time></trkpt><trkpt lat="49.14350438114982" lon="2.504504625768985"><ele>78.14285714285715</ele><time>2026-04-24T09:05:42.998Z</time></trkpt><trkpt lat="49.143581844355936" lon="2.504490498505246"><ele>78.28571428571428</ele><time>2026-04-24T09:05:46.997Z</time></trkpt><trkpt lat="49.14365477502738" lon="2.5044830651543766"><ele>78.42857142857143</ele><time>2026-04-24T09:05:50.997Z</time></trkpt><trkpt lat="49.1437217164937" lon="2.5044930223616704"><ele>78.57142857142858</ele><time>2026-04-24T09:05:54.997Z</time></trkpt><trkpt lat="49.14379399702496" lon="2.5044822290398323"><ele>78.71428571428572</ele><time>2026-04-24T09:05:58.997Z</time></trkpt><trkpt lat="49.143872714048" lon="2.504488753135162"><ele>78.85714285714286</ele><time>2026-04-24T09:06:03.997Z</time></trkpt><trkpt lat="49.14393921782309" lon="2.5044807478852342"><ele>79.0</ele><time>2026-04-24T09:06:08Z</time></trkpt><trkpt lat="49.14400541232878" lon="2.5044836979919447"><ele>78.57142857142858</ele><time>2026-04-24T09:06:12Z</time></trkpt><trkpt lat="49.14407815946198" lon="2.504444166407172"><ele>78.14285714285714</ele><time>2026-04-24T09:06:17Z</time></trkpt><trkpt lat="49.14414513063682" lon="2.5044926685508435"><ele>77.71428571428572</ele><time>2026-04-24T09:06:21Z</time></trkpt><trkpt lat="49.14421542977125" lon="2.504472641829589"><ele>77.28571428571429</ele><time>2026-04-24T09:06:26Z</time></trkpt><trkpt lat="49.14427954913053" lon="2.5044796216669423"><ele>76.85714285714286</ele><time>2026-04-24T09:06:30Z</time></trkpt><trkpt lat="49.144346834425875" lon="2.5044751332290582"><ele>76.42857142857143</ele><time>2026-04-24T09:06:33Z</time></trkpt><trkpt lat="49.144422347356816" lon="2.5044652294096426"><ele>76.0</ele><time>2026-04-24T09:06:37Z</time></trkpt><trkpt lat="49.144506871884474" lon="2.5044643641902993"><ele>76.0</ele><time>2026-04-24T09:06:41Z</time></trkpt><trkpt lat="49.14457498671763" lon="2.5044717892118644"><ele>76.0</ele><time>2026-04-24T09:06:43.999Z</time></trkpt><trkpt lat="49.14465050016791" lon="2.5044677027870508"><ele>76.0</ele><time>2026-04-24T09:06:46.999Z</time></trkpt><trkpt lat="49.14472390010972" lon="2.504463190347472"><ele>76.0</ele><time>2026-04-24T09:06:49.999Z</time></trkpt><trkpt lat="49.14480280651911" lon="2.504459940203187"><ele>76.0</ele><time>2026-04-24T09:06:52.999Z</time></trkpt><trkpt lat="49.14487924213493" lon="2.5044605815118617"><ele>76.0</ele><time>2026-04-24T09:06:55.999Z</time></trkpt><trkpt lat="49.144941519677175" lon="2.5044449336586614"><ele>76.0</ele><time>2026-04-24T09:06:58.999Z</time></trkpt><trkpt lat="49.14501865888858" lon="2.504451131249098"><ele>75.57142857142857</ele><time>2026-04-24T09:07:02.999Z</time></trkpt><trkpt lat="49.14509208710511" lon="2.5044528881982724"><ele>75.14285714285715</ele><time>2026-04-24T09:07:06.999Z</time></trkpt><trkpt lat="49.145158048820306" lon="2.5044573250252835"><ele>74.71428571428572</ele><time>2026-04-24T09:07:10.999Z</time></trkpt><trkpt lat="49.14523369810324" lon="2.504463685114742"><ele>74.28571428571428</ele><time>2026-04-24T09:07:15.998Z</time></trkpt><trkpt lat="49.14529819181169" lon="2.504458467275896"><ele>73.85714285714286</ele><time>2026-04-24T09:07:19.998Z</time></trkpt><trkpt lat="49.145374305771604" lon="2.5044485137738604"><ele>73.42857142857143</ele><time>2026-04-24T09:07:24.998Z</time></trkpt><trkpt lat="49.14544214273809" lon="2.5044465447872275"><ele>73.0</ele><time>2026-04-24T09:07:29.998Z</time></trkpt><trkpt lat="49.14550581670415" lon="2.504454601651671"><ele>73.0</ele><time>2026-04-24T09:07:32.998Z</time></trkpt><trkpt lat="49.14557542285744" lon="2.5044472358190455"><ele>73.0</ele><time>2026-04-24T09:07:36.998Z</time></trkpt><trkpt lat="49.14565190217838" lon="2.50444056193946"><ele>73.0</ele><time>2026-04-24T09:07:40.998Z</time></trkpt><trkpt lat="49.1457255553678" lon="2.5044370124524598"><ele>73.0</ele><time>2026-04-24T09:07:44.998Z</time></trkpt><trkpt lat="49.14578989002402" lon="2.504440374382329"><ele>73.0</ele><time>2026-04-24T09:07:47.998Z</time></trkpt><trkpt lat="49.1458607803579" lon="2.504439004435972"><ele>73.0</ele><time>2026-04-24T09:07:51.997Z</time></trkpt><trkpt lat="49.14594106924524" lon="2.504428636024156"><ele>73.0</ele><time>2026-04-24T09:07:55.997Z</time></trkpt><trkpt lat="49.14600972380734" lon="2.504432157551657"><ele>72.0</ele><time>2026-04-24T09:07:59.997Z</time></trkpt><trkpt lat="49.146089173007034" lon="2.504427416614476"><ele>71.0</ele><time>2026-04-24T09:08:02.997Z</time></trkpt><trkpt lat="49.146170093788044" lon="2.5044253576711473"><ele>70.0</ele><time>2026-04-24T09:08:06.997Z</time></trkpt><trkpt lat="49.14623280987307" lon="2.504435918745975"><ele>69.0</ele><time>2026-04-24T09:08:10.997Z</time></trkpt><trkpt lat="49.14630714777421" lon="2.5044265276656277"><ele>68.0</ele><time>2026-04-24T09:08:14Z</time></trkpt><trkpt lat="49.14637678404357" lon="2.5044238831437875"><ele>67.0</ele><time>2026-04-24T09:08:17Z</time></trkpt><trkpt lat="49.146442911185034" lon="2.504425183196394"><ele>66.0</ele><time>2026-04-24T09:08:20Z</time></trkpt><trkpt lat="49.14652311298797" lon="2.5044202217558746"><ele>65.42857142857143</ele><time>2026-04-24T09:08:24Z</time></trkpt><trkpt lat="49.14658909683264" lon="2.5044167226595406"><ele>64.85714285714286</ele><time>2026-04-24T09:08:27Z</time></trkpt><trkpt lat="49.146657622590716" lon="2.5044146902057816"><ele>64.28571428571429</ele><time>2026-04-24T09:08:30Z</time></trkpt><trkpt lat="49.14672059085272" lon="2.5044215234955467"><ele>63.714285714285715</ele><time>2026-04-24T09:08:34Z</time></trkpt><trkpt lat="49.14679225776773" lon="2.504414955808393"><ele>63.14285714285715</ele><time>2026-04-24T09:08:38Z</time></trkpt><trkpt lat="49.14687050655259" lon="2.5044072007861296"><ele>62.57142857142858</ele><time>2026-04-24T09:08:42Z</time></trkpt><trkpt lat="49.14693966625508" lon="2.5044075507843275"><ele>62.0</ele><time>2026-04-24T09:08:45Z</time></trkpt><trkpt lat="49.14702178079302" lon="2.5044038739216155"><ele>62.00000000000001</ele><time>2026-04-24T09:08:49.999Z</time></trkpt><trkpt lat="49.14710224945006" lon="2.504400927852286"><ele>62.0</ele><time>2026-04-24T09:08:53.999Z</time></trkpt><trkpt lat="49.14716544247406" lon="2.5044089089833332"><ele>62.0</ele><time>2026-04-24T09:08:55.999Z</time></trkpt><trkpt lat="49.14724664204318" lon="2.5043987353906982"><ele>62.0</ele><time>2026-04-24T09:08:59.999Z</time></trkpt><trkpt lat="49.14733162880236" lon="2.5043833982020627"><ele>62.00000000000001</ele><time>2026-04-24T09:09:02.999Z</time></trkpt><trkpt lat="49.1474107209214" lon="2.504384116180205"><ele>62.0</ele><time>2026-04-24T09:09:05.999Z</time></trkpt><trkpt lat="49.14748440432998" lon="2.5043895499104547"><ele>62.16666666666667</ele><time>2026-04-24T09:09:08.999Z</time></trkpt><trkpt lat="49.1475486879516" lon="2.5043880648647674"><ele>62.333333333333336</ele><time>2026-04-24T09:09:11.999Z</time></trkpt><trkpt lat="49.14761954831453" lon="2.5043791541195133"><ele>62.5</ele><time>2026-04-24T09:09:14.999Z</time></trkpt><trkpt lat="49.14769788572927" lon="2.5043690775946956"><ele>62.66666666666667</ele><time>2026-04-24T09:09:18.999Z</time></trkpt><trkpt lat="49.14778305791805" lon="2.5043562822066336"><ele>62.833333333333336</ele><time>2026-04-24T09:09:22.998Z</time></trkpt><trkpt lat="49.14786183403018" lon="2.5043440363402323"><ele>63.0</ele><time>2026-04-24T09:09:26.998Z</time></trkpt><trkpt lat="49.14793587423366" lon="2.5043582090602485"><ele>63.0</ele><time>2026-04-24T09:09:30.998Z</time></trkpt><trkpt lat="49.14801320554526" lon="2.504360926135635"><ele>63.0</ele><time>2026-04-24T09:09:33.998Z</time></trkpt><trkpt lat="49.14807880369547" lon="2.50436195964235"><ele>63.0</ele><time>2026-04-24T09:09:36.998Z</time></trkpt><trkpt lat="49.14815393519872" lon="2.504360200354921"><ele>63.0</ele><time>2026-04-24T09:09:39.998Z</time></trkpt><trkpt lat="49.148237837113456" lon="2.504358899656091"><ele>63.0</ele><time>2026-04-24T09:09:42.998Z</time></trkpt><trkpt lat="49.14832032489059" lon="2.5043622093773075"><ele>63.0</ele><time>2026-04-24T09:09:45.998Z</time></trkpt><trkpt lat="49.148395755203296" lon="2.504348137926105"><ele>63.714285714285715</ele><time>2026-04-24T09:09:48.998Z</time></trkpt><trkpt lat="49.14846475006262" lon="2.5043338857472204"><ele>64.42857142857143</ele><time>2026-04-24T09:10:00.997Z</time></trkpt><trkpt lat="49.14852874653326" lon="2.504315396767222"><ele>65.14285714285714</ele><time>2026-04-24T09:10:04.997Z</time></trkpt><trkpt lat="49.14859938536182" lon="2.5042770976446787"><ele>65.85714285714286</ele><time>2026-04-24T09:10:09.997Z</time></trkpt><trkpt lat="49.14866418337804" lon="2.5042092776904044"><ele>66.57142857142857</ele><time>2026-04-24T09:10:14.997Z</time></trkpt><trkpt lat="49.14873510807643" lon="2.5041666459014746"><ele>67.28571428571428</ele><time>2026-04-24T09:10:19Z</time></trkpt><trkpt lat="49.148804685112914" lon="2.5041258816901206"><ele>68.0</ele><time>2026-04-24T09:10:23Z</time></trkpt><trkpt lat="49.14886208686314" lon="2.504086350187997"><ele>67.99999999999999</ele><time>2026-04-24T09:10:27Z</time></trkpt><trkpt lat="49.148932597300224" lon="2.504050970473826"><ele>68.0</ele><time>2026-04-24T09:10:31Z</time></trkpt><trkpt lat="49.14899513478958" lon="2.5040120545480953"><ele>68.0</ele><time>2026-04-24T09:10:35Z</time></trkpt><trkpt lat="49.149056385079845" lon="2.503965058334754"><ele>68.0</ele><time>2026-04-24T09:10:39Z</time></trkpt><trkpt lat="49.1491230636136" lon="2.503921185103824"><ele>68.0</ele><time>2026-04-24T09:10:43Z</time></trkpt><trkpt lat="49.14918237753791" lon="2.5038821246393925"><ele>67.99999999999999</ele><time>2026-04-24T09:10:47Z</time></trkpt><trkpt lat="49.14924742605779" lon="2.503844482235754"><ele>68.0</ele><time>2026-04-24T09:10:51Z</time></trkpt><trkpt lat="49.14931682600257" lon="2.5038086555350922"><ele>68.14285714285714</ele><time>2026-04-24T09:10:54.999Z</time></trkpt><trkpt lat="49.14938384393142" lon="2.503772083310596"><ele>68.28571428571428</ele><time>2026-04-24T09:10:58.999Z</time></trkpt><trkpt lat="49.14945395133045" lon="2.5037338687873474"><ele>68.42857142857143</ele><time>2026-04-24T09:11:02.999Z</time></trkpt><trkpt lat="49.14951806489045" lon="2.503691772045714"><ele>68.57142857142857</ele><time>2026-04-24T09:11:06.999Z</time></trkpt><trkpt lat="49.149460041540046" lon="2.50373283988575"><ele>68.71428571428572</ele><time>2026-04-24T09:11:15.999Z</time></trkpt><trkpt lat="49.14939999584371" lon="2.5037668683925265"><ele>68.85714285714286</ele><time>2026-04-24T09:12:21.997Z</time></trkpt><trkpt lat="49.14946398983846" lon="2.503730780338332"><ele>69.0</ele><time>2026-04-24T09:12:38Z</time></trkpt><trkpt lat="49.1495259965688" lon="2.5036817184849163"><ele>69.16666666666667</ele><time>2026-04-24T09:12:43Z</time></trkpt><trkpt lat="49.149589749552355" lon="2.5036389194297057"><ele>69.33333333333333</ele><time>2026-04-24T09:12:46Z</time></trkpt><trkpt lat="49.14965958133587" lon="2.503594400961949"><ele>69.5</ele><time>2026-04-24T09:12:49Z</time></trkpt><trkpt lat="49.149736035175344" lon="2.503554472670209"><ele>69.66666666666666</ele><time>2026-04-24T09:12:52Z</time></trkpt><trkpt lat="49.14981395504355" lon="2.503522074724961"><ele>69.83333333333333</ele><time>2026-04-24T09:12:56Z</time></trkpt><trkpt lat="49.1498727433937" lon="2.5034777962987786"><ele>70.0</ele><time>2026-04-24T09:12:59Z</time></trkpt><trkpt lat="49.14995391310788" lon="2.5034359877908274"><ele>70.0</ele><time>2026-04-24T09:13:02.999Z</time></trkpt><trkpt lat="49.15002144737618" lon="2.503392348628314"><ele>70.0</ele><time>2026-04-24T09:13:05.999Z</time></trkpt><trkpt lat="49.15008135842221" lon="2.5033505125024087"><ele>70.0</ele><time>2026-04-24T09:13:08.999Z</time></trkpt><trkpt lat="49.15014316090805" lon="2.5033134241596886"><ele>70.0</ele><time>2026-04-24T09:13:11.999Z</time></trkpt><trkpt lat="49.150222716123444" lon="2.5032673219362715"><ele>70.0</ele><time>2026-04-24T09:13:14.999Z</time></trkpt><trkpt lat="49.15029928879725" lon="2.503207898681154"><ele>70.0</ele><time>2026-04-24T09:13:17.999Z</time></trkpt><trkpt lat="49.150361743287654" lon="2.503184888812231"><ele>70.0</ele><time>2026-04-24T09:13:19.999Z</time></trkpt><trkpt lat="49.150434794717604" lon="2.5031327651807818"><ele>70.0</ele><time>2026-04-24T09:13:22.999Z</time></trkpt><trkpt lat="49.15050422204781" lon="2.503090029248149"><ele>70.0</ele><time>2026-04-24T09:13:25.999Z</time></trkpt><trkpt lat="49.15057098600248" lon="2.503048460031293"><ele>70.0</ele><time>2026-04-24T09:13:42.998Z</time></trkpt><trkpt lat="49.15063539793794" lon="2.503013431556154"><ele>70.0</ele><time>2026-04-24T09:13:48.998Z</time></trkpt><trkpt lat="49.15070527591296" lon="2.5029757317343178"><ele>70.0</ele><time>2026-04-24T09:13:53.998Z</time></trkpt><trkpt lat="49.1507740378023" lon="2.50294479878611"><ele>70.0</ele><time>2026-04-24T09:13:59.998Z</time></trkpt><trkpt lat="49.15084807162614" lon="2.5028991596128205"><ele>70.0</ele><time>2026-04-24T09:14:05.997Z</time></trkpt><trkpt lat="49.15092159571267" lon="2.5028595363638355"><ele>69.83333333333333</ele><time>2026-04-24T09:14:10.997Z</time></trkpt><trkpt lat="49.150987456167" lon="2.502793063270624"><ele>69.66666666666666</ele><time>2026-04-24T09:14:15.997Z</time></trkpt><trkpt lat="49.15107208085658" lon="2.502755872981014"><ele>69.5</ele><time>2026-04-24T09:14:19.997Z</time></trkpt><trkpt lat="49.151138475637865" lon="2.5027016706299086"><ele>69.33333333333333</ele><time>2026-04-24T09:14:23.997Z</time></trkpt><trkpt lat="49.151221435036284" lon="2.502658987298812"><ele>69.16666666666667</ele><time>2026-04-24T09:14:27.997Z</time></trkpt><trkpt lat="49.151283181443134" lon="2.502630131306503"><ele>69.0</ele><time>2026-04-24T09:14:31Z</time></trkpt><trkpt lat="49.151341862946644" lon="2.502592986129062"><ele>69.0</ele><time>2026-04-24T09:14:34Z</time></trkpt><trkpt lat="49.151411256841506" lon="2.502554979892403"><ele>69.0</ele><time>2026-04-24T09:14:38Z</time></trkpt><trkpt lat="49.151474858808335" lon="2.5025095734205753"><ele>69.0</ele><time>2026-04-24T09:14:42Z</time></trkpt><trkpt lat="49.15154932017146" lon="2.5024654134367914"><ele>69.0</ele><time>2026-04-24T09:14:46Z</time></trkpt><trkpt lat="49.15160787555687" lon="2.5024285077592183"><ele>69.0</ele><time>2026-04-24T09:14:49Z</time></trkpt><trkpt lat="49.15168019912674" lon="2.502392415940626"><ele>69.0</ele><time>2026-04-24T09:14:53Z</time></trkpt><trkpt lat="49.15175568386924" lon="2.5023490437709714"><ele>69.0</ele><time>2026-04-24T09:14:57Z</time></trkpt><trkpt lat="49.151825138084334" lon="2.5022932571258143"><ele>68.57142857142857</ele><time>2026-04-24T09:15:01Z</time></trkpt><trkpt lat="49.15190320146754" lon="2.502254915452711"><ele>68.14285714285715</ele><time>2026-04-24T09:15:04.999Z</time></trkpt><trkpt lat="49.15196274715204" lon="2.502213399318508"><ele>67.71428571428572</ele><time>2026-04-24T09:15:07.999Z</time></trkpt><trkpt lat="49.152021738908665" lon="2.5021756282074508"><ele>67.28571428571429</ele><time>2026-04-24T09:15:10.999Z</time></trkpt><trkpt lat="49.15208202533156" lon="2.502140386933534"><ele>66.85714285714286</ele><time>2026-04-24T09:15:14.999Z</time></trkpt><trkpt lat="49.15214317699544" lon="2.502111260391679"><ele>66.42857142857143</ele><time>2026-04-24T09:15:18.999Z</time></trkpt><trkpt lat="49.152209991387686" lon="2.502066676000284"><ele>66.0</ele><time>2026-04-24T09:15:22.999Z</time></trkpt><trkpt lat="49.15228144521027" lon="2.5020282436861647"><ele>66.0</ele><time>2026-04-24T09:15:26.999Z</time></trkpt><trkpt lat="49.15235732214915" lon="2.5019830448549873"><ele>66.0</ele><time>2026-04-24T09:15:30.999Z</time></trkpt><trkpt lat="49.1524238082656" lon="2.501945567537236"><ele>66.0</ele><time>2026-04-24T09:15:33.999Z</time></trkpt><trkpt lat="49.15249133392308" lon="2.501900903700013"><ele>66.0</ele><time>2026-04-24T09:15:37.998Z</time></trkpt><trkpt lat="49.152561507194" lon="2.501853955945207"><ele>66.0</ele><time>2026-04-24T09:15:41.998Z</time></trkpt><trkpt lat="49.15262948072887" lon="2.5018178063594374"><ele>66.0</ele><time>2026-04-24T09:15:45.998Z</time></trkpt><trkpt lat="49.15270004653643" lon="2.501769579628096"><ele>66.14285714285714</ele><time>2026-04-24T09:15:49.998Z</time></trkpt><trkpt lat="49.1527576359225" lon="2.501729316441779"><ele>66.28571428571429</ele><time>2026-04-24T09:15:52.998Z</time></trkpt><trkpt lat="49.15282422874513" lon="2.501691637432834"><ele>66.42857142857143</ele><time>2026-04-24T09:15:56.998Z</time></trkpt><trkpt lat="49.152893439250725" lon="2.5016516974799305"><ele>66.57142857142857</ele><time>2026-04-24T09:16:00.998Z</time></trkpt><trkpt lat="49.15296893423997" lon="2.50161339277529"><ele>66.71428571428571</ele><time>2026-04-24T09:16:04.998Z</time></trkpt><trkpt lat="49.15303669891329" lon="2.5015830813680724"><ele>66.85714285714286</ele><time>2026-04-24T09:16:08.997Z</time></trkpt><trkpt lat="49.153097630613786" lon="2.50152960463466"><ele>67.0</ele><time>2026-04-24T09:16:12.997Z</time></trkpt><trkpt lat="49.15315844978773" lon="2.501502059334293"><ele>67.0</ele><time>2026-04-24T09:16:16.997Z</time></trkpt><trkpt lat="49.15323127784071" lon="2.5014657177300266"><ele>67.0</ele><time>2026-04-24T09:16:20.997Z</time></trkpt><trkpt lat="49.153306788767914" lon="2.5014171668850746"><ele>67.0</ele><time>2026-04-24T09:16:24.997Z</time></trkpt><trkpt lat="49.153375980847834" lon="2.5013638745069326"><ele>67.0</ele><time>2026-04-24T09:16:28.997Z</time></trkpt><trkpt lat="49.153446084935986" lon="2.5013237701730366"><ele>67.0</ele><time>2026-04-24T09:16:32.997Z</time></trkpt><trkpt lat="49.15350607594811" lon="2.501291148483522"><ele>67.0</ele><time>2026-04-24T09:16:36Z</time></trkpt><trkpt lat="49.15356990382422" lon="2.501251969763379"><ele>67.0</ele><time>2026-04-24T09:16:40Z</time></trkpt><trkpt lat="49.153635935275936" lon="2.5012125479020866"><ele>67.0</ele><time>2026-04-24T09:16:43Z</time></trkpt><trkpt lat="49.15371253715225" lon="2.5011608693420238"><ele>67.0</ele><time>2026-04-24T09:16:47Z</time></trkpt><trkpt lat="49.15379073871479" lon="2.5011250904508424"><ele>67.0</ele><time>2026-04-24T09:16:51Z</time></trkpt><trkpt lat="49.153853836324316" lon="2.501073181212304"><ele>67.0</ele><time>2026-04-24T09:16:55Z</time></trkpt><trkpt lat="49.1539279849902" lon="2.5010293058905937"><ele>67.0</ele><time>2026-04-24T09:16:59Z</time></trkpt><trkpt lat="49.1540033142103" lon="2.500989075220693"><ele>67.0</ele><time>2026-04-24T09:17:03Z</time></trkpt><trkpt lat="49.15407443525729" lon="2.5009426266404144"><ele>67.0</ele><time>2026-04-24T09:17:07Z</time></trkpt><trkpt lat="49.15413628403842" lon="2.500910101389233"><ele>67.0</ele><time>2026-04-24T09:17:10.999Z</time></trkpt><trkpt lat="49.1542126309697" lon="2.5008656776094718"><ele>67.0</ele><time>2026-04-24T09:17:14.999Z</time></trkpt><trkpt lat="49.154279375479106" lon="2.5008213081879864"><ele>67.0</ele><time>2026-04-24T09:17:18.999Z</time></trkpt><trkpt lat="49.15435080733857" lon="2.5007721938949143"><ele>67.0</ele><time>2026-04-24T09:17:22.999Z</time></trkpt><trkpt lat="49.154422833699044" lon="2.500733405771522"><ele>67.0</ele><time>2026-04-24T09:17:26.999Z</time></trkpt><trkpt lat="49.15449215961016" lon="2.5006943183457593"><ele>67.0</ele><time>2026-04-24T09:17:30.999Z</time></trkpt><trkpt lat="49.15456505934905" lon="2.5006503126126223"><ele>67.0</ele><time>2026-04-24T09:17:35.999Z</time></trkpt><trkpt lat="49.15463448267295" lon="2.500600081202537"><ele>67.0</ele><time>2026-04-24T09:17:40.998Z</time></trkpt><trkpt lat="49.154693567977354" lon="2.500566753583348"><ele>67.0</ele><time>2026-04-24T09:17:44.998Z</time></trkpt><trkpt lat="49.15475525542551" lon="2.500522934610355"><ele>67.0</ele><time>2026-04-24T09:17:48.998Z</time></trkpt><trkpt lat="49.154819699225" lon="2.500487578352901"><ele>67.0</ele><time>2026-04-24T09:17:52.998Z</time></trkpt><trkpt lat="49.154882059859226" lon="2.5004558374753674"><ele>67.0</ele><time>2026-04-24T09:17:56.998Z</time></trkpt><trkpt lat="49.15495115036434" lon="2.5004135207818936"><ele>67.0</ele><time>2026-04-24T09:18:00.998Z</time></trkpt><trkpt lat="49.1550211444566" lon="2.5003710691207885"><ele>66.71428571428572</ele><time>2026-04-24T09:18:05.998Z</time></trkpt><trkpt lat="49.155080723996484" lon="2.5003375339338216"><ele>66.42857142857143</ele><time>2026-04-24T09:18:08.998Z</time></trkpt><trkpt lat="49.155160524234454" lon="2.5002958380312776"><ele>66.14285714285714</ele><time>2026-04-24T09:18:13.997Z</time></trkpt><trkpt lat="49.155222653126025" lon="2.500258420958682"><ele>65.85714285714286</ele><time>2026-04-24T09:18:16.997Z</time></trkpt><trkpt lat="49.15529132420173" lon="2.5002198697429754"><ele>65.57142857142857</ele><time>2026-04-24T09:18:21.997Z</time></trkpt><trkpt lat="49.15536604544622" lon="2.500174502459717"><ele>65.28571428571429</ele><time>2026-04-24T09:18:25.997Z</time></trkpt><trkpt lat="49.155431421105874" lon="2.5001391035085105"><ele>65.0</ele><time>2026-04-24T09:18:29.997Z</time></trkpt><trkpt lat="49.15549538902612" lon="2.500096771583778"><ele>65.00000000000001</ele><time>2026-04-24T09:18:33.997Z</time></trkpt><trkpt lat="49.15556737813734" lon="2.500052045974823"><ele>65.0</ele><time>2026-04-24T09:18:37.997Z</time></trkpt><trkpt lat="49.15562870741397" lon="2.5000197905102746"><ele>65.0</ele><time>2026-04-24T09:18:42Z</time></trkpt><trkpt lat="49.15569021522959" lon="2.4999881733370923"><ele>65.0</ele><time>2026-04-24T09:18:45Z</time></trkpt><trkpt lat="49.15575703344027" lon="2.499953370294147"><ele>65.0</ele><time>2026-04-24T09:18:49Z</time></trkpt><trkpt lat="49.15582028006781" lon="2.4999122528133744"><ele>65.00000000000001</ele><time>2026-04-24T09:18:54Z</time></trkpt><trkpt lat="49.15589200359509" lon="2.4998579008261026"><ele>65.0</ele><time>2026-04-24T09:19:08Z</time></trkpt><trkpt lat="49.15596107372228" lon="2.4998080843161623"><ele>65.16666666666667</ele><time>2026-04-24T09:19:12Z</time></trkpt><trkpt lat="49.156021718817286" lon="2.4997727106600323"><ele>65.33333333333334</ele><time>2026-04-24T09:19:14.999Z</time></trkpt><trkpt lat="49.1561008978693" lon="2.499733104914611"><ele>65.5</ele><time>2026-04-24T09:19:17.999Z</time></trkpt><trkpt lat="49.156178574211815" lon="2.4997086795796966"><ele>65.66666666666667</ele><time>2026-04-24T09:19:20.999Z</time></trkpt><trkpt lat="49.156250678257464" lon="2.4996671148499257"><ele>65.83333333333333</ele><time>2026-04-24T09:19:23.999Z</time></trkpt><trkpt lat="49.15632319394754" lon="2.49964377970135"><ele>66.0</ele><time>2026-04-24T09:19:26.999Z</time></trkpt><trkpt lat="49.15639626505988" lon="2.499635007471559"><ele>66.0</ele><time>2026-04-24T09:19:30.999Z</time></trkpt><trkpt lat="49.15646806170449" lon="2.4995912694690876"><ele>66.0</ele><time>2026-04-24T09:19:33.999Z</time></trkpt><trkpt lat="49.15651737085603" lon="2.499504533603148"><ele>66.0</ele><time>2026-04-24T09:19:36.999Z</time></trkpt><trkpt lat="49.15655172774362" lon="2.499406536452299"><ele>66.0</ele><time>2026-04-24T09:19:39.999Z</time></trkpt><trkpt lat="49.15657278051077" lon="2.499313306949242"><ele>66.0</ele><time>2026-04-24T09:19:42.999Z</time></trkpt><trkpt lat="49.15657624251572" lon="2.499207958575828"><ele>66.0</ele><time>2026-04-24T09:19:45.998Z</time></trkpt><trkpt lat="49.156589299366374" lon="2.4990839155079594"><ele>66.0</ele><time>2026-04-24T09:19:49.998Z</time></trkpt><trkpt lat="49.15661703869865" lon="2.498976793458236"><ele>65.14285714285714</ele><time>2026-04-24T09:19:52.998Z</time></trkpt><trkpt lat="49.156608653321406" lon="2.498877671542356"><ele>64.28571428571429</ele><time>2026-04-24T09:19:55.998Z</time></trkpt><trkpt lat="49.15663561423567" lon="2.4987770741449866"><ele>63.42857142857143</ele><time>2026-04-24T09:19:59.998Z</time></trkpt><trkpt lat="49.15668689713278" lon="2.498696877881122"><ele>62.57142857142857</ele><time>2026-04-24T09:20:02.998Z</time></trkpt><trkpt lat="49.15672446823112" lon="2.4985894675651883"><ele>61.71428571428571</ele><time>2026-04-24T09:20:05.998Z</time></trkpt><trkpt lat="49.15674614163581" lon="2.49849351490991"><ele>60.85714285714286</ele><time>2026-04-24T09:20:09.998Z</time></trkpt><trkpt lat="49.156716075666594" lon="2.4983824095577103"><ele>60.0</ele><time>2026-04-24T09:20:12.998Z</time></trkpt><trkpt lat="49.15671148749236" lon="2.4982689239074864"><ele>60.0</ele><time>2026-04-24T09:20:15.997Z</time></trkpt><trkpt lat="49.15670851887509" lon="2.498148786107715"><ele>60.0</ele><time>2026-04-24T09:20:19.997Z</time></trkpt><trkpt lat="49.15672015468836" lon="2.498038967927113"><ele>60.0</ele><time>2026-04-24T09:20:22.997Z</time></trkpt><trkpt lat="49.15671425085079" lon="2.4979226729094717"><ele>60.0</ele><time>2026-04-24T09:20:25.997Z</time></trkpt><trkpt lat="49.156660591152686" lon="2.4978516352412825"><ele>60.0</ele><time>2026-04-24T09:20:28.997Z</time></trkpt><trkpt lat="49.15662367346015" lon="2.497764225020285"><ele>60.0</ele><time>2026-04-24T09:20:32.997Z</time></trkpt><trkpt lat="49.156642472608915" lon="2.497657724503244"><ele>60.0</ele><time>2026-04-24T09:20:36.997Z</time></trkpt><trkpt lat="49.156659215259396" lon="2.4975542628467875"><ele>59.714285714285715</ele><time>2026-04-24T09:20:40.997Z</time></trkpt><trkpt lat="49.15667983019801" lon="2.497462856723961"><ele>59.42857142857143</ele><time>2026-04-24T09:20:43.997Z</time></trkpt><trkpt lat="49.156712562411684" lon="2.4973325483092244"><ele>59.142857142857146</ele><time>2026-04-24T09:20:47Z</time></trkpt><trkpt lat="49.15671572266781" lon="2.497215324149269"><ele>58.85714285714286</ele><time>2026-04-24T09:20:49Z</time></trkpt><trkpt lat="49.15667044852181" lon="2.4971279612025548"><ele>58.57142857142857</ele><time>2026-04-24T09:20:55Z</time></trkpt><trkpt lat="49.156644951698475" lon="2.4970394910260776"><ele>58.28571428571429</ele><time>2026-04-24T09:21:00Z</time></trkpt><trkpt lat="49.156657553027465" lon="2.4969328542227003"><ele>58.00000000000001</ele><time>2026-04-24T09:21:06Z</time></trkpt><trkpt lat="49.156631892343206" lon="2.4968215042962028"><ele>58.00000000000001</ele><time>2026-04-24T09:21:09Z</time></trkpt><trkpt lat="49.156586831625404" lon="2.4967185933807774"><ele>58.0</ele><time>2026-04-24T09:21:13Z</time></trkpt><trkpt lat="49.1565370510923" lon="2.4966517420209757"><ele>58.00000000000001</ele><time>2026-04-24T09:21:15.999Z</time></trkpt><trkpt lat="49.156524337490225" lon="2.496528706545282"><ele>58.00000000000001</ele><time>2026-04-24T09:21:19.999Z</time></trkpt><trkpt lat="49.156533593228154" lon="2.4964071215755426"><ele>58.0</ele><time>2026-04-24T09:21:23.999Z</time></trkpt><trkpt lat="49.156523315347236" lon="2.4963018663998553"><ele>58.00000000000001</ele><time>2026-04-24T09:21:27.999Z</time></trkpt><trkpt lat="49.15651801462639" lon="2.496197113185971"><ele>58.00000000000001</ele><time>2026-04-24T09:21:31.999Z</time></trkpt><trkpt lat="49.156520456457564" lon="2.496076561719683"><ele>57.33333333333333</ele><time>2026-04-24T09:21:35.999Z</time></trkpt><trkpt lat="49.156505039719924" lon="2.4959633783649706"><ele>56.666666666666664</ele><time>2026-04-24T09:21:39.999Z</time></trkpt><trkpt lat="49.15649991812301" lon="2.4958610940509462"><ele>56.0</ele><time>2026-04-24T09:21:43.999Z</time></trkpt><trkpt lat="49.15651901103134" lon="2.4957563770489966"><ele>55.33333333333333</ele><time>2026-04-24T09:21:47.998Z</time></trkpt><trkpt lat="49.15650177585662" lon="2.4956365068297313"><ele>54.666666666666664</ele><time>2026-04-24T09:21:53.998Z</time></trkpt><trkpt lat="49.1565157252712" lon="2.495518874890273"><ele>54.0</ele><time>2026-04-24T09:21:56.998Z</time></trkpt><trkpt lat="49.156540551965364" lon="2.495405136783513"><ele>54.0</ele><time>2026-04-24T09:21:59.998Z</time></trkpt><trkpt lat="49.15657511956899" lon="2.49529114906457"><ele>54.0</ele><time>2026-04-24T09:22:02.998Z</time></trkpt><trkpt lat="49.156601903497894" lon="2.4951744950907573"><ele>54.0</ele><time>2026-04-24T09:22:05.998Z</time></trkpt><trkpt lat="49.1566149227663" lon="2.495037473562135"><ele>54.0</ele><time>2026-04-24T09:22:08.998Z</time></trkpt><trkpt lat="49.156604021925375" lon="2.4949159974944046"><ele>54.0</ele><time>2026-04-24T09:22:11.998Z</time></trkpt><trkpt lat="49.15662035086886" lon="2.4948015939059163"><ele>54.0</ele><time>2026-04-24T09:22:15.998Z</time></trkpt><trkpt lat="49.15665476610891" lon="2.4947176841192786"><ele>54.0</ele><time>2026-04-24T09:22:19.997Z</time></trkpt><trkpt lat="49.156731392554605" lon="2.4947054538851443"><ele>54.0</ele><time>2026-04-24T09:22:39.997Z</time></trkpt><trkpt lat="49.15680216120479" lon="2.4946933087934955"><ele>54.0</ele><time>2026-04-24T09:22:43.997Z</time></trkpt><trkpt lat="49.15687934878962" lon="2.494679230794649"><ele>54.0</ele><time>2026-04-24T09:22:47.997Z</time></trkpt><trkpt lat="49.15694580709979" lon="2.4946760629357643"><ele>54.0</ele><time>2026-04-24T09:22:52Z</time></trkpt><trkpt lat="49.157010257107174" lon="2.494663750409982"><ele>54.0</ele><time>2026-04-24T09:22:57Z</time></trkpt><trkpt lat="49.15708090088121" lon="2.494654199976831"><ele>54.0</ele><time>2026-04-24T09:23:02Z</time></trkpt><trkpt lat="49.157144190687" lon="2.494646350912211"><ele>54.0</ele><time>2026-04-24T09:23:05Z</time></trkpt><trkpt lat="49.157224077137705" lon="2.4946411046742862"><ele>54.0</ele><time>2026-04-24T09:23:09Z</time></trkpt><trkpt lat="49.157304823262805" lon="2.4946262346266876"><ele>54.0</ele><time>2026-04-24T09:23:13Z</time></trkpt><trkpt lat="49.157378833802234" lon="2.4946368875784954"><ele>54.0</ele><time>2026-04-24T09:23:17Z</time></trkpt><trkpt lat="49.15745633484018" lon="2.4946187463026237"><ele>54.0</ele><time>2026-04-24T09:23:20.999Z</time></trkpt><trkpt lat="49.15752964820032" lon="2.4946082774230702"><ele>54.0</ele><time>2026-04-24T09:23:23.999Z</time></trkpt><trkpt lat="49.15760502844273" lon="2.4946138091585155"><ele>53.285714285714285</ele><time>2026-04-24T09:23:26.999Z</time></trkpt><trkpt lat="49.15768039349553" lon="2.4946087044927183"><ele>52.57142857142857</ele><time>2026-04-24T09:23:29.999Z</time></trkpt><trkpt lat="49.15775706146574" lon="2.494603998677197"><ele>51.85714285714286</ele><time>2026-04-24T09:23:32.999Z</time></trkpt><trkpt lat="49.15783060489813" lon="2.4945929863718064"><ele>51.14285714285714</ele><time>2026-04-24T09:23:36.999Z</time></trkpt><trkpt lat="49.15790391459276" lon="2.494602609939474"><ele>50.42857142857143</ele><time>2026-04-24T09:23:41.999Z</time></trkpt><trkpt lat="49.15796715479957" lon="2.4945979568604657"><ele>49.714285714285715</ele><time>2026-04-24T09:23:46.999Z</time></trkpt><trkpt lat="49.15803318023468" lon="2.4945970604946335"><ele>49.0</ele><time>2026-04-24T09:23:51.998Z</time></trkpt><trkpt lat="49.15809785157137" lon="2.494627862952624"><ele>49.0</ele><time>2026-04-24T09:23:56.998Z</time></trkpt><trkpt lat="49.15808836039844" lon="2.494740840794091"><ele>49.0</ele><time>2026-04-24T09:24:07.998Z</time></trkpt><trkpt lat="49.158103712208984" lon="2.494641262383582"><ele>49.0</ele><time>2026-04-24T09:24:18.998Z</time></trkpt><trkpt lat="49.15808785242088" lon="2.494530660408446"><ele>49.0</ele><time>2026-04-24T09:24:24.997Z</time></trkpt><trkpt lat="49.158077045972" lon="2.4944219194097355"><ele>49.0</ele><time>2026-04-24T09:24:29.997Z</time></trkpt><trkpt lat="49.15807267283159" lon="2.494324448510068"><ele>49.0</ele><time>2026-04-24T09:24:33.997Z</time></trkpt><trkpt lat="49.15806131312872" lon="2.494210067528425"><ele>49.0</ele><time>2026-04-24T09:24:37.997Z</time></trkpt><trkpt lat="49.1580435787533" lon="2.494090068150207"><ele>49.0</ele><time>2026-04-24T09:24:40.997Z</time></trkpt><trkpt lat="49.15803608254058" lon="2.4939805058504514"><ele>49.0</ele><time>2026-04-24T09:24:43.997Z</time></trkpt><trkpt lat="49.158018319786805" lon="2.4938737202641836"><ele>49.0</ele><time>2026-04-24T09:24:46.997Z</time></trkpt><trkpt lat="49.158011678684936" lon="2.4937541317336014"><ele>49.0</ele><time>2026-04-24T09:24:50.997Z</time></trkpt><trkpt lat="49.15799753377535" lon="2.4936456473794393"><ele>49.0</ele><time>2026-04-24T09:24:53.996Z</time></trkpt><trkpt lat="49.15798787118344" lon="2.4935377679971857"><ele>49.0</ele><time>2026-04-24T09:24:57Z</time></trkpt><trkpt lat="49.1579866385416" lon="2.4934164364255573"><ele>49.0</ele><time>2026-04-24T09:25:00Z</time></trkpt><trkpt lat="49.15797833563604" lon="2.493312404131595"><ele>49.0</ele><time>2026-04-24T09:25:03Z</time></trkpt><trkpt lat="49.1579582481323" lon="2.493193904344999"><ele>49.0</ele><time>2026-04-24T09:25:06Z</time></trkpt><trkpt lat="49.1579564679662" lon="2.4930938224764176"><ele>49.0</ele><time>2026-04-24T09:25:09Z</time></trkpt><trkpt lat="49.15793562014451" lon="2.492997262335043"><ele>49.0</ele><time>2026-04-24T09:25:12Z</time></trkpt><trkpt lat="49.15792971732623" lon="2.49287688653951"><ele>49.0</ele><time>2026-04-24T09:25:16Z</time></trkpt><trkpt lat="49.15790998791659" lon="2.4927736341260522"><ele>49.0</ele><time>2026-04-24T09:25:19Z</time></trkpt><trkpt lat="49.15789083701803" lon="2.492642599632721"><ele>49.0</ele><time>2026-04-24T09:25:23Z</time></trkpt><trkpt lat="49.157881002473" lon="2.49254128621208"><ele>49.166666666666664</ele><time>2026-04-24T09:25:25.999Z</time></trkpt><trkpt lat="49.157866330146874" lon="2.4924276267076717"><ele>49.33333333333333</ele><time>2026-04-24T09:25:28.999Z</time></trkpt><trkpt lat="49.15786124410389" lon="2.492319903186255"><ele>49.5</ele><time>2026-04-24T09:25:31.999Z</time></trkpt><trkpt lat="49.15783843427298" lon="2.492214595160181"><ele>49.66666666666667</ele><time>2026-04-24T09:25:34.999Z</time></trkpt><trkpt lat="49.15781982000751" lon="2.4921061090849013"><ele>49.833333333333336</ele><time>2026-04-24T09:25:37.999Z</time></trkpt><trkpt lat="49.157797762327036" lon="2.49197550308363"><ele>50.0</ele><time>2026-04-24T09:25:40.999Z</time></trkpt><trkpt lat="49.15778359246968" lon="2.4918661813887315"><ele>50.00000000000001</ele><time>2026-04-24T09:25:43.999Z</time></trkpt><trkpt lat="49.15776689966014" lon="2.4917629712329563"><ele>50.0</ele><time>2026-04-24T09:25:46.999Z</time></trkpt><trkpt lat="49.15773077333274" lon="2.491645267535646"><ele>50.0</ele><time>2026-04-24T09:25:50.999Z</time></trkpt><trkpt lat="49.15770890463327" lon="2.491531672445114"><ele>50.0</ele><time>2026-04-24T09:25:53.999Z</time></trkpt><trkpt lat="49.15770408891949" lon="2.491397817263343"><ele>50.00000000000001</ele><time>2026-04-24T09:25:57.998Z</time></trkpt><trkpt lat="49.157677927912985" lon="2.4912884965084885"><ele>50.0</ele><time>2026-04-24T09:26:01.998Z</time></trkpt><trkpt lat="49.1576487688819" lon="2.4911804366059798"><ele>50.00000000000001</ele><time>2026-04-24T09:26:05.998Z</time></trkpt><trkpt lat="49.15762980641131" lon="2.4910655936457493"><ele>50.0</ele><time>2026-04-24T09:26:09.998Z</time></trkpt><trkpt lat="49.15760854807994" lon="2.4909623594053123"><ele>50.0</ele><time>2026-04-24T09:26:12.998Z</time></trkpt><trkpt lat="49.15758602298121" lon="2.4908478707542874"><ele>50.0</ele><time>2026-04-24T09:26:16.998Z</time></trkpt><trkpt lat="49.15757292592508" lon="2.4907475344505237"><ele>50.0</ele><time>2026-04-24T09:26:19.998Z</time></trkpt><trkpt lat="49.15757537041864" lon="2.490645039463799"><ele>50.00000000000001</ele><time>2026-04-24T09:26:23.998Z</time></trkpt><trkpt lat="49.15757640241121" lon="2.4905238112179338"><ele>50.0</ele><time>2026-04-24T09:26:27.998Z</time></trkpt><trkpt lat="49.15757419565286" lon="2.4904272285427993"><ele>50.00000000000001</ele><time>2026-04-24T09:26:30.997Z</time></trkpt><trkpt lat="49.15758192052376" lon="2.490309899687805"><ele>50.0</ele><time>2026-04-24T09:26:46.997Z</time></trkpt><trkpt lat="49.15758840085336" lon="2.4902002694865355"><ele>50.0</ele><time>2026-04-24T09:26:50.997Z</time></trkpt><trkpt lat="49.15759289229754" lon="2.4900952193606667"><ele>50.0</ele><time>2026-04-24T09:26:54.997Z</time></trkpt><trkpt lat="49.15759115100099" lon="2.48998457220119"><ele>50.0</ele><time>2026-04-24T09:26:57.997Z</time></trkpt><trkpt lat="49.157600230392525" lon="2.4898833692342857"><ele>50.00000000000001</ele><time>2026-04-24T09:27:02Z</time></trkpt><trkpt lat="49.15761075856672" lon="2.489766836380668"><ele>50.0</ele><time>2026-04-24T09:27:06Z</time></trkpt><trkpt lat="49.15762472089435" lon="2.489657301754618"><ele>50.00000000000001</ele><time>2026-04-24T09:27:10Z</time></trkpt><trkpt lat="49.15763490393584" lon="2.489550187895256"><ele>50.0</ele><time>2026-04-24T09:27:13Z</time></trkpt><trkpt lat="49.15765158749147" lon="2.4894453371949465"><ele>50.0</ele><time>2026-04-24T09:27:16Z</time></trkpt><trkpt lat="49.15767545734502" lon="2.489354069136489"><ele>50.0</ele><time>2026-04-24T09:27:20Z</time></trkpt><trkpt lat="49.15771078894667" lon="2.4892667231919687"><ele>50.0</ele><time>2026-04-24T09:27:23Z</time></trkpt><trkpt lat="49.15773884107857" lon="2.489179917189444"><ele>50.00000000000001</ele><time>2026-04-24T09:27:26Z</time></trkpt><trkpt lat="49.15776953236277" lon="2.4890955555883805"><ele>50.0</ele><time>2026-04-24T09:27:29Z</time></trkpt><trkpt lat="49.157800937796324" lon="2.489012021856334"><ele>50.00000000000001</ele><time>2026-04-24T09:27:31.999Z</time></trkpt><trkpt lat="49.157841008871614" lon="2.4889233287332844"><ele>50.0</ele><time>2026-04-24T09:27:34.999Z</time></trkpt><trkpt lat="49.15787513022964" lon="2.488828185582366"><ele>50.0</ele><time>2026-04-24T09:27:37.999Z</time></trkpt><trkpt lat="49.15790979870125" lon="2.488745867143589"><ele>50.0</ele><time>2026-04-24T09:27:40.999Z</time></trkpt><trkpt lat="49.15794127543462" lon="2.48865943498485"><ele>50.0</ele><time>2026-04-24T09:27:43.999Z</time></trkpt><trkpt lat="49.15798399227848" lon="2.4885664445998135"><ele>50.00000000000001</ele><time>2026-04-24T09:27:47.999Z</time></trkpt><trkpt lat="49.158022180903004" lon="2.488479280199958"><ele>50.0</ele><time>2026-04-24T09:27:51.999Z</time></trkpt><trkpt lat="49.15806102860902" lon="2.4883870759420073"><ele>50.00000000000001</ele><time>2026-04-24T09:27:55.999Z</time></trkpt><trkpt lat="49.15811210711432" lon="2.4882944698609526"><ele>50.0</ele><time>2026-04-24T09:27:59.999Z</time></trkpt><trkpt lat="49.158155847177675" lon="2.48821669110156"><ele>50.0</ele><time>2026-04-24T09:28:03.998Z</time></trkpt><trkpt lat="49.15820634408207" lon="2.4881440428580808"><ele>50.0</ele><time>2026-04-24T09:28:07.998Z</time></trkpt><trkpt lat="49.15825977783618" lon="2.4880576779891395"><ele>50.0</ele><time>2026-04-24T09:28:11.998Z</time></trkpt><trkpt lat="49.15831029425339" lon="2.487970176068328"><ele>50.00000000000001</ele><time>2026-04-24T09:28:15.998Z</time></trkpt><trkpt lat="49.158363783193195" lon="2.4878896973380424"><ele>50.0</ele><time>2026-04-24T09:28:19.998Z</time></trkpt><trkpt lat="49.15842103302524" lon="2.487815491602787"><ele>50.00000000000001</ele><time>2026-04-24T09:28:23.998Z</time></trkpt><trkpt lat="49.15847519910935" lon="2.4877299739896985"><ele>50.0</ele><time>2026-04-24T09:28:27.998Z</time></trkpt><trkpt lat="49.158508470090844" lon="2.4876468865376165"><ele>50.0</ele><time>2026-04-24T09:28:30.998Z</time></trkpt><trkpt lat="49.15855414509556" lon="2.487564568453769"><ele>50.0</ele><time>2026-04-24T09:28:33.997Z</time></trkpt><trkpt lat="49.158605691322435" lon="2.487488132407935"><ele>50.0</ele><time>2026-04-24T09:28:36.997Z</time></trkpt><trkpt lat="49.15866577058805" lon="2.487410068628989"><ele>50.00000000000001</ele><time>2026-04-24T09:28:40.997Z</time></trkpt><trkpt lat="49.15872467831925" lon="2.4873152831176895"><ele>50.0</ele><time>2026-04-24T09:28:44.997Z</time></trkpt><trkpt lat="49.15876647722873" lon="2.487230881468235"><ele>50.00000000000001</ele><time>2026-04-24T09:28:47.997Z</time></trkpt><trkpt lat="49.15881732587047" lon="2.487159169963627"><ele>50.0</ele><time>2026-04-24T09:28:50.997Z</time></trkpt><trkpt lat="49.15886227379696" lon="2.4870866785846886"><ele>50.0</ele><time>2026-04-24T09:28:53.997Z</time></trkpt><trkpt lat="49.15889030001696" lon="2.4869830248083025"><ele>50.0</ele><time>2026-04-24T09:28:56.997Z</time></trkpt><trkpt lat="49.158909051864974" lon="2.4868773214843776"><ele>50.0</ele><time>2026-04-24T09:28:59.997Z</time></trkpt><trkpt lat="49.15892807409948" lon="2.486782517000099"><ele>50.00000000000001</ele><time>2026-04-24T09:29:03.997Z</time></trkpt><trkpt lat="49.158893187184475" lon="2.4866856250480254"><ele>50.0</ele><time>2026-04-24T09:29:15Z</time></trkpt><trkpt lat="49.15882054123037" lon="2.4866538171383166"><ele>49.85714285714286</ele><time>2026-04-24T09:29:21Z</time></trkpt><trkpt lat="49.15875395416752" lon="2.486636066371519"><ele>49.714285714285715</ele><time>2026-04-24T09:29:25Z</time></trkpt><trkpt lat="49.15867917722693" lon="2.486593074955464"><ele>49.57142857142857</ele><time>2026-04-24T09:29:29Z</time></trkpt><trkpt lat="49.158599103821714" lon="2.4865720527129103"><ele>49.42857142857143</ele><time>2026-04-24T09:29:32Z</time></trkpt><trkpt lat="49.158535032893944" lon="2.4865435500269575"><ele>49.285714285714285</ele><time>2026-04-24T09:29:34Z</time></trkpt><trkpt lat="49.158471422146036" lon="2.486524597225086"><ele>49.142857142857146</ele><time>2026-04-24T09:29:35.999Z</time></trkpt><trkpt lat="49.15839331917896" lon="2.4864948416788586"><ele>49.0</ele><time>2026-04-24T09:29:38.999Z</time></trkpt><trkpt lat="49.15833277166468" lon="2.48645105506489"><ele>49.0</ele><time>2026-04-24T09:29:41.999Z</time></trkpt><trkpt lat="49.158262958897495" lon="2.486439992008996"><ele>49.0</ele><time>2026-04-24T09:29:44.999Z</time></trkpt><trkpt lat="49.158200754282376" lon="2.4864223781844434"><ele>49.0</ele><time>2026-04-24T09:29:47.999Z</time></trkpt><trkpt lat="49.15813887319199" lon="2.486390177133572"><ele>49.0</ele><time>2026-04-24T09:29:50.999Z</time></trkpt><trkpt lat="49.158072815459064" lon="2.4863682522431856"><ele>49.0</ele><time>2026-04-24T09:29:53.999Z</time></trkpt><trkpt lat="49.15798730911619" lon="2.4863326158028785"><ele>49.0</ele><time>2026-04-24T09:29:57.999Z</time></trkpt><trkpt lat="49.157925266742964" lon="2.4863048429715904"><ele>49.0</ele><time>2026-04-24T09:30:00.999Z</time></trkpt><trkpt lat="49.157862203403454" lon="2.486279903523278"><ele>49.285714285714285</ele><time>2026-04-24T09:30:03.999Z</time></trkpt><trkpt lat="49.15778741632842" lon="2.4862481741527485"><ele>49.57142857142857</ele><time>2026-04-24T09:30:07.998Z</time></trkpt><trkpt lat="49.15772116455378" lon="2.486228052694389"><ele>49.85714285714286</ele><time>2026-04-24T09:30:11.998Z</time></trkpt><trkpt lat="49.157649508812625" lon="2.4862009530590417"><ele>50.14285714285714</ele><time>2026-04-24T09:30:15.998Z</time></trkpt><trkpt lat="49.157576734654" lon="2.4861905571557954"><ele>50.42857142857143</ele><time>2026-04-24T09:30:19.998Z</time></trkpt><trkpt lat="49.157500713544486" lon="2.4861739227427133"><ele>50.714285714285715</ele><time>2026-04-24T09:30:23.998Z</time></trkpt><trkpt lat="49.15743184338882" lon="2.486177542761248"><ele>51.0</ele><time>2026-04-24T09:30:27.998Z</time></trkpt><trkpt lat="49.1573953956895" lon="2.486265262156288"><ele>51.285714285714285</ele><time>2026-04-24T09:30:32.998Z</time></trkpt><trkpt lat="49.157391056312264" lon="2.4863616423519947"><ele>51.57142857142857</ele><time>2026-04-24T09:30:36.998Z</time></trkpt><trkpt lat="49.15735522410451" lon="2.486469759005345"><ele>51.85714285714286</ele><time>2026-04-24T09:30:42.997Z</time></trkpt><trkpt lat="49.157329622175965" lon="2.486566458778507"><ele>52.14285714285714</ele><time>2026-04-24T09:30:47.997Z</time></trkpt><trkpt lat="49.15730108198761" lon="2.486674562633534"><ele>52.42857142857142</ele><time>2026-04-24T09:30:52.997Z</time></trkpt><trkpt lat="49.157265134452764" lon="2.486789966166258"><ele>52.714285714285715</ele><time>2026-04-24T09:30:57.997Z</time></trkpt><trkpt lat="49.15723713102325" lon="2.486895006845089"><ele>53.0</ele><time>2026-04-24T09:31:02.997Z</time></trkpt><trkpt lat="49.15720166758614" lon="2.4869924143384297"><ele>54.28571428571429</ele><time>2026-04-24T09:31:07.997Z</time></trkpt><trkpt lat="49.157165797221616" lon="2.487084085326883"><ele>55.57142857142857</ele><time>2026-04-24T09:31:12Z</time></trkpt><trkpt lat="49.15712783932548" lon="2.487174485865089"><ele>56.85714285714286</ele><time>2026-04-24T09:31:16Z</time></trkpt><trkpt lat="49.15708806362262" lon="2.4872675977706495"><ele>58.142857142857146</ele><time>2026-04-24T09:31:19Z</time></trkpt><trkpt lat="49.157050816130926" lon="2.48736259364458"><ele>59.42857142857143</ele><time>2026-04-24T09:31:22Z</time></trkpt><trkpt lat="49.15699965368644" lon="2.487456603422205"><ele>60.714285714285715</ele><time>2026-04-24T09:31:26Z</time></trkpt><trkpt lat="49.15696011475185" lon="2.4875513798763134"><ele>62.0</ele><time>2026-04-24T09:31:30Z</time></trkpt><trkpt lat="49.156904187365484" lon="2.487643559909305"><ele>62.0</ele><time>2026-04-24T09:31:34Z</time></trkpt><trkpt lat="49.15686893266274" lon="2.4877450719229786"><ele>62.00000000000001</ele><time>2026-04-24T09:31:37Z</time></trkpt><trkpt lat="49.156824064930134" lon="2.487827339806504"><ele>62.0</ele><time>2026-04-24T09:31:40Z</time></trkpt><trkpt lat="49.156778549185404" lon="2.4879112681356057"><ele>62.0</ele><time>2026-04-24T09:31:43.999Z</time></trkpt><trkpt lat="49.15672594102707" lon="2.4879964075083834"><ele>62.00000000000001</ele><time>2026-04-24T09:31:47.999Z</time></trkpt><trkpt lat="49.156675357558406" lon="2.4880776819354793"><ele>62.0</ele><time>2026-04-24T09:31:51.999Z</time></trkpt><trkpt lat="49.156625408091564" lon="2.488165389068497"><ele>62.0</ele><time>2026-04-24T09:31:55.999Z</time></trkpt><trkpt lat="49.15658276060956" lon="2.488253195827735"><ele>62.16666666666667</ele><time>2026-04-24T09:31:59.999Z</time></trkpt><trkpt lat="49.156542809186845" lon="2.488338626055788"><ele>62.333333333333336</ele><time>2026-04-24T09:32:03.999Z</time></trkpt><trkpt lat="49.156508894004396" lon="2.488443464735106"><ele>62.5</ele><time>2026-04-24T09:32:07.999Z</time></trkpt><trkpt lat="49.156471259663775" lon="2.4885476860077054"><ele>62.66666666666667</ele><time>2026-04-24T09:32:12.998Z</time></trkpt><trkpt lat="49.15643623796872" lon="2.4886679184129"><ele>62.833333333333336</ele><time>2026-04-24T09:32:17.998Z</time></trkpt><trkpt lat="49.15640050703462" lon="2.4887754564363473"><ele>63.0</ele><time>2026-04-24T09:32:21.998Z</time></trkpt><trkpt lat="49.15636609056109" lon="2.4889020595666493"><ele>63.0</ele><time>2026-04-24T09:32:24.998Z</time></trkpt><trkpt lat="49.156336020660966" lon="2.489019238346783"><ele>63.0</ele><time>2026-04-24T09:32:28.998Z</time></trkpt><trkpt lat="49.15633087983995" lon="2.4891159933005924"><ele>63.0</ele><time>2026-04-24T09:32:31.998Z</time></trkpt><trkpt lat="49.15630917581938" lon="2.4892272470459598"><ele>63.0</ele><time>2026-04-24T09:32:34.998Z</time></trkpt><trkpt lat="49.15629125700276" lon="2.4893229833824697"><ele>63.0</ele><time>2026-04-24T09:32:37.998Z</time></trkpt><trkpt lat="49.156285146863404" lon="2.489429271216267"><ele>63.0</ele><time>2026-04-24T09:32:41.998Z</time></trkpt><trkpt lat="49.15627001983786" lon="2.489567636192038"><ele>63.0</ele><time>2026-04-24T09:32:44.997Z</time></trkpt><trkpt lat="49.15626223470067" lon="2.4896663854983365"><ele>62.57142857142857</ele><time>2026-04-24T09:32:47.997Z</time></trkpt><trkpt lat="49.15626206603495" lon="2.489783492010736"><ele>62.14285714285714</ele><time>2026-04-24T09:32:51.997Z</time></trkpt><trkpt lat="49.156231527783184" lon="2.4898992532622524"><ele>61.714285714285715</ele><time>2026-04-24T09:32:55.997Z</time></trkpt><trkpt lat="49.15621685474078" lon="2.4899965869716842"><ele>61.285714285714285</ele><time>2026-04-24T09:32:59.997Z</time></trkpt><trkpt lat="49.1562022845063" lon="2.4901012670132685"><ele>60.857142857142854</ele><time>2026-04-24T09:33:05.997Z</time></trkpt><trkpt lat="49.15619988243164" lon="2.49020382534703"><ele>60.42857142857143</ele><time>2026-04-24T09:33:10.997Z</time></trkpt><trkpt lat="49.15620071042734" lon="2.490329870557099"><ele>60.0</ele><time>2026-04-24T09:33:14.997Z</time></trkpt><trkpt lat="49.15619310125037" lon="2.490427982736772"><ele>59.57142857142857</ele><time>2026-04-24T09:33:19Z</time></trkpt><trkpt lat="49.15617537454994" lon="2.4905266573180884"><ele>59.14285714285714</ele><time>2026-04-24T09:33:24Z</time></trkpt><trkpt lat="49.156164839713426" lon="2.4906278638536263"><ele>58.71428571428571</ele><time>2026-04-24T09:33:28Z</time></trkpt><trkpt lat="49.156170219993435" lon="2.4907264278932773"><ele>58.285714285714285</ele><time>2026-04-24T09:33:32Z</time></trkpt><trkpt lat="49.156162372551535" lon="2.490846788753234"><ele>57.85714285714285</ele><time>2026-04-24T09:33:38Z</time></trkpt><trkpt lat="49.15618301997056" lon="2.490942215620714"><ele>57.42857142857142</ele><time>2026-04-24T09:33:42Z</time></trkpt><trkpt lat="49.15621076517094" lon="2.4910422289162217"><ele>57.0</ele><time>2026-04-24T09:33:46.999Z</time></trkpt><trkpt lat="49.15624431054584" lon="2.4911275505806167"><ele>57.0</ele><time>2026-04-24T09:33:50.999Z</time></trkpt><trkpt lat="49.15625668029595" lon="2.4912364484405387"><ele>56.99999999999999</ele><time>2026-04-24T09:33:55.999Z</time></trkpt><trkpt lat="49.156293422933736" lon="2.491322921776107"><ele>57.0</ele><time>2026-04-24T09:33:59.999Z</time></trkpt><trkpt lat="49.156327616788275" lon="2.491408688067825"><ele>57.0</ele><time>2026-04-24T09:34:04.999Z</time></trkpt><trkpt lat="49.156351583929734" lon="2.4914997001196184"><ele>56.99999999999999</ele><time>2026-04-24T09:34:08.999Z</time></trkpt><trkpt lat="49.15639389501356" lon="2.491604249600869"><ele>57.0</ele><time>2026-04-24T09:34:13.999Z</time></trkpt><trkpt lat="49.15643178124552" lon="2.4916901682717696"><ele>57.0</ele><time>2026-04-24T09:34:17.998Z</time></trkpt><trkpt lat="49.15646822628961" lon="2.4917813359050984"><ele>57.14285714285714</ele><time>2026-04-24T09:34:21.998Z</time></trkpt><trkpt lat="49.156500385183165" lon="2.491868586687087"><ele>57.28571428571428</ele><time>2026-04-24T09:34:25.998Z</time></trkpt><trkpt lat="49.15652478984762" lon="2.4919795049606384"><ele>57.42857142857143</ele><time>2026-04-24T09:34:29.998Z</time></trkpt><trkpt lat="49.1565509531682" lon="2.4920973612458757"><ele>57.57142857142857</ele><time>2026-04-24T09:34:33.998Z</time></trkpt><trkpt lat="49.15657252989779" lon="2.4922088850976976"><ele>57.714285714285715</ele><time>2026-04-24T09:34:37.998Z</time></trkpt><trkpt lat="49.15659855510975" lon="2.4923003977129943"><ele>57.85714285714286</ele><time>2026-04-24T09:34:40.998Z</time></trkpt><trkpt lat="49.156639420452464" lon="2.492407779925343"><ele>58.00000000000001</ele><time>2026-04-24T09:34:44.998Z</time></trkpt><trkpt lat="49.15665327305337" lon="2.4925043679923733"><ele>57.57142857142858</ele><time>2026-04-24T09:34:47.998Z</time></trkpt><trkpt lat="49.15665432664638" lon="2.4926123572838184"><ele>57.142857142857146</ele><time>2026-04-24T09:34:51.997Z</time></trkpt><trkpt lat="49.156657556659795" lon="2.492708490573958"><ele>56.714285714285715</ele><time>2026-04-24T09:34:54.997Z</time></trkpt><trkpt lat="49.15668404403477" lon="2.4928226170871572"><ele>56.28571428571429</ele><time>2026-04-24T09:34:58.997Z</time></trkpt><trkpt lat="49.15668719052165" lon="2.4929445544395197"><ele>55.85714285714286</ele><time>2026-04-24T09:35:02.997Z</time></trkpt><trkpt lat="49.15669241692511" lon="2.4930448900026465"><ele>55.42857142857142</ele><time>2026-04-24T09:35:06.997Z</time></trkpt><trkpt lat="49.15671203071779" lon="2.493141692680757"><ele>55.0</ele><time>2026-04-24T09:35:10.997Z</time></trkpt><trkpt lat="49.1567101801156" lon="2.4932383321172273"><ele>54.99999999999999</ele><time>2026-04-24T09:35:14.997Z</time></trkpt><trkpt lat="49.15671455196931" lon="2.4933392321027954"><ele>55.0</ele><time>2026-04-24T09:35:26Z</time></trkpt><trkpt lat="49.15669901558516" lon="2.4934561433499867"><ele>55.0</ele><time>2026-04-24T09:35:30Z</time></trkpt><trkpt lat="49.15669325114449" lon="2.493572179138354"><ele>55.0</ele><time>2026-04-24T09:35:35Z</time></trkpt><trkpt lat="49.1566877951761" lon="2.493679501580886"><ele>55.0</ele><time>2026-04-24T09:35:39Z</time></trkpt><trkpt lat="49.156687693946466" lon="2.4937958935233073"><ele>54.99999999999999</ele><time>2026-04-24T09:35:44Z</time></trkpt><trkpt lat="49.156678703113315" lon="2.493909374294137"><ele>55.0</ele><time>2026-04-24T09:35:48Z</time></trkpt><trkpt lat="49.15666349392788" lon="2.4940279006505444"><ele>54.857142857142854</ele><time>2026-04-24T09:35:51.999Z</time></trkpt><trkpt lat="49.15666025954597" lon="2.494133184577453"><ele>54.714285714285715</ele><time>2026-04-24T09:35:55.999Z</time></trkpt><trkpt lat="49.15665659603086" lon="2.4942403097274943"><ele>54.57142857142857</ele><time>2026-04-24T09:35:59.999Z</time></trkpt><trkpt lat="49.15664899755091" lon="2.494349286587339"><ele>54.42857142857143</ele><time>2026-04-24T09:36:03.999Z</time></trkpt><trkpt lat="49.156644115010856" lon="2.494467061542272"><ele>54.285714285714285</ele><time>2026-04-24T09:36:07.999Z</time></trkpt><trkpt lat="49.15664997648819" lon="2.494570278654879"><ele>54.14285714285714</ele><time>2026-04-24T09:36:11.999Z</time></trkpt><trkpt lat="49.156656466387055" lon="2.4946663097025494"><ele>54.0</ele><time>2026-04-24T09:36:17.999Z</time></trkpt><trkpt lat="49.156638657670676" lon="2.4947793159338563"><ele>54.0</ele><time>2026-04-24T09:36:22.998Z</time></trkpt><trkpt lat="49.15662938786389" lon="2.4948814300643765"><ele>54.0</ele><time>2026-04-24T09:36:26.998Z</time></trkpt><trkpt lat="49.15663318185482" lon="2.494986329083305"><ele>54.0</ele><time>2026-04-24T09:36:30.998Z</time></trkpt><trkpt lat="49.15664387858631" lon="2.495083859112778"><ele>54.0</ele><time>2026-04-24T09:36:34.998Z</time></trkpt><trkpt lat="49.156658072055734" lon="2.4951830498914545"><ele>54.0</ele><time>2026-04-24T09:36:38.998Z</time></trkpt><trkpt lat="49.15665747837567" lon="2.495284302915727"><ele>54.0</ele><time>2026-04-24T09:36:41.998Z</time></trkpt><trkpt lat="49.15666251113229" lon="2.495407126480503"><ele>54.0</ele><time>2026-04-24T09:36:45.998Z</time></trkpt><trkpt lat="49.156656859828075" lon="2.495544453861547"><ele>54.833333333333336</ele><time>2026-04-24T09:36:49.998Z</time></trkpt><trkpt lat="49.15667021747345" lon="2.4956677365265723"><ele>55.66666666666667</ele><time>2026-04-24T09:36:52.998Z</time></trkpt><trkpt lat="49.15668085187359" lon="2.495763003934986"><ele>56.5</ele><time>2026-04-24T09:36:54.997Z</time></trkpt><trkpt lat="49.15669376042203" lon="2.4958904608969563"><ele>57.333333333333336</ele><time>2026-04-24T09:36:57.997Z</time></trkpt><trkpt lat="49.156711289912934" lon="2.496001948127611"><ele>58.16666666666667</ele><time>2026-04-24T09:37:00.997Z</time></trkpt><trkpt lat="49.15672679441966" lon="2.4961195295216876"><ele>59.0</ele><time>2026-04-24T09:37:03.997Z</time></trkpt><trkpt lat="49.15674107892315" lon="2.4962425378550948"><ele>58.833333333333336</ele><time>2026-04-24T09:37:06.997Z</time></trkpt><trkpt lat="49.15676470059924" lon="2.49634507949952"><ele>58.66666666666667</ele><time>2026-04-24T09:37:09.997Z</time></trkpt><trkpt lat="49.156783140125384" lon="2.4964853199332744"><ele>58.5</ele><time>2026-04-24T09:37:12.997Z</time></trkpt><trkpt lat="49.156802397439535" lon="2.4965845925848327"><ele>58.33333333333333</ele><time>2026-04-24T09:37:15.997Z</time></trkpt><trkpt lat="49.15682391406217" lon="2.4966884559429037"><ele>58.166666666666664</ele><time>2026-04-24T09:37:18.997Z</time></trkpt><trkpt lat="49.15685798656741" lon="2.4967892247247168"><ele>58.0</ele><time>2026-04-24T09:37:21.997Z</time></trkpt><trkpt lat="49.15690085816616" lon="2.4969010959471185"><ele>58.00000000000001</ele><time>2026-04-24T09:37:24.997Z</time></trkpt><trkpt lat="49.1569458464238" lon="2.497010309396469"><ele>58.0</ele><time>2026-04-24T09:37:27.996Z</time></trkpt><trkpt lat="49.15698876703333" lon="2.4971039690680965"><ele>58.00000000000001</ele><time>2026-04-24T09:37:32Z</time></trkpt><trkpt lat="49.15701542016108" lon="2.4972082338948463"><ele>58.00000000000001</ele><time>2026-04-24T09:37:37Z</time></trkpt><trkpt lat="49.15703962203162" lon="2.4973219571052048"><ele>58.0</ele><time>2026-04-24T09:37:42Z</time></trkpt><trkpt lat="49.15705857623484" lon="2.497414890491471"><ele>58.00000000000001</ele><time>2026-04-24T09:37:46Z</time></trkpt><trkpt lat="49.15707277788652" lon="2.4975138026422594"><ele>58.00000000000001</ele><time>2026-04-24T09:37:49Z</time></trkpt><trkpt lat="49.157097540098576" lon="2.497637196602095"><ele>57.99999999999999</ele><time>2026-04-24T09:37:53Z</time></trkpt><trkpt lat="49.15711195756999" lon="2.497753492308958"><ele>58.0</ele><time>2026-04-24T09:37:56.999Z</time></trkpt><trkpt lat="49.15711290533028" lon="2.4978667994739125"><ele>58.0</ele><time>2026-04-24T09:38:00.999Z</time></trkpt><trkpt lat="49.15711338501154" lon="2.4979663898807614"><ele>58.0</ele><time>2026-04-24T09:38:04.999Z</time></trkpt><trkpt lat="49.157113506394516" lon="2.49808397752157"><ele>57.99999999999999</ele><time>2026-04-24T09:38:09.999Z</time></trkpt><trkpt lat="49.15711770197657" lon="2.498208392493139"><ele>58.0</ele><time>2026-04-24T09:38:13.999Z</time></trkpt><trkpt lat="49.15711379680098" lon="2.498332818292804"><ele>58.28571428571429</ele><time>2026-04-24T09:38:17.999Z</time></trkpt><trkpt lat="49.157106879999176" lon="2.4984499219214595"><ele>58.57142857142857</ele><time>2026-04-24T09:38:21.999Z</time></trkpt><trkpt lat="49.15709845115657" lon="2.498560770372995"><ele>58.85714285714286</ele><time>2026-04-24T09:38:26.998Z</time></trkpt><trkpt lat="49.157080543926" lon="2.498665904577146"><ele>59.142857142857146</ele><time>2026-04-24T09:38:31.998Z</time></trkpt><trkpt lat="49.15706509420782" lon="2.498776483148549"><ele>59.42857142857143</ele><time>2026-04-24T09:38:36.998Z</time></trkpt><trkpt lat="49.1570477701247" lon="2.498884898806084"><ele>59.714285714285715</ele><time>2026-04-24T09:38:40.998Z</time></trkpt><trkpt lat="49.15703135840564" lon="2.498978731285601"><ele>60.0</ele><time>2026-04-24T09:38:43.998Z</time></trkpt><trkpt lat="49.15702083261307" lon="2.499103727772774"><ele>60.0</ele><time>2026-04-24T09:38:47.998Z</time></trkpt><trkpt lat="49.15700960897879" lon="2.4992183992916592"><ele>60.0</ele><time>2026-04-24T09:38:51.998Z</time></trkpt><trkpt lat="49.15698272015064" lon="2.4993385354582998"><ele>60.0</ele><time>2026-04-24T09:38:55.998Z</time></trkpt><trkpt lat="49.15697433543409" lon="2.4994545961008243"><ele>60.0</ele><time>2026-04-24T09:38:59.997Z</time></trkpt><trkpt lat="49.15695812638423" lon="2.4995737459539877"><ele>60.0</ele><time>2026-04-24T09:39:03.997Z</time></trkpt><trkpt lat="49.156942748271646" lon="2.4996716140469615"><ele>60.0</ele><time>2026-04-24T09:39:06.997Z</time></trkpt><trkpt lat="49.156929406761726" lon="2.499781179001035"><ele>60.0</ele><time>2026-04-24T09:39:10.997Z</time></trkpt><trkpt lat="49.15691305923823" lon="2.4998853252598354"><ele>60.0</ele><time>2026-04-24T09:39:14.997Z</time></trkpt><trkpt lat="49.15688383073207" lon="2.4999882265406885"><ele>60.0</ele><time>2026-04-24T09:39:18.997Z</time></trkpt><trkpt lat="49.15684810435422" lon="2.5000858227940355"><ele>60.0</ele><time>2026-04-24T09:39:23.997Z</time></trkpt><trkpt lat="49.15683693804666" lon="2.500182040444922"><ele>60.0</ele><time>2026-04-24T09:39:27.997Z</time></trkpt><trkpt lat="49.15681755198325" lon="2.5002906928826625"><ele>60.0</ele><time>2026-04-24T09:39:39Z</time></trkpt><trkpt lat="49.156822723397006" lon="2.500406719281205"><ele>60.0</ele><time>2026-04-24T09:39:43Z</time></trkpt><trkpt lat="49.15683186836941" lon="2.5005070041280315"><ele>60.0</ele><time>2026-04-24T09:39:47Z</time></trkpt><trkpt lat="49.15683624230392" lon="2.5006277342508123"><ele>60.0</ele><time>2026-04-24T09:39:52Z</time></trkpt><trkpt lat="49.156835323126224" lon="2.5007292553739506"><ele>60.0</ele><time>2026-04-24T09:39:56Z</time></trkpt><trkpt lat="49.15684210591753" lon="2.5008431658254553"><ele>60.0</ele><time>2026-04-24T09:40:00.999Z</time></trkpt><trkpt lat="49.15685219341262" lon="2.500960627560136"><ele>60.0</ele><time>2026-04-24T09:40:05.999Z</time></trkpt><trkpt lat="49.15685589284952" lon="2.5010705018705406"><ele>60.0</ele><time>2026-04-24T09:40:10.999Z</time></trkpt><trkpt lat="49.156868093023924" lon="2.5011829044012237"><ele>60.0</ele><time>2026-04-24T09:40:15.999Z</time></trkpt><trkpt lat="49.156870692234826" lon="2.5012972564594684"><ele>60.0</ele><time>2026-04-24T09:40:20.999Z</time></trkpt><trkpt lat="49.156883137320136" lon="2.5013998316162516"><ele>60.0</ele><time>2026-04-24T09:40:25.999Z</time></trkpt><trkpt lat="49.15688427872567" lon="2.5015055475030987"><ele>60.0</ele><time>2026-04-24T09:40:30.999Z</time></trkpt><trkpt lat="49.156897896933586" lon="2.501611488549631"><ele>60.0</ele><time>2026-04-24T09:40:34.998Z</time></trkpt><trkpt lat="49.156907106176945" lon="2.5017167426045708"><ele>60.0</ele><time>2026-04-24T09:40:38.998Z</time></trkpt><trkpt lat="49.15691978012388" lon="2.5018245520469593"><ele>60.0</ele><time>2026-04-24T09:40:42.998Z</time></trkpt><trkpt lat="49.15693138846098" lon="2.5019291829158354"><ele>60.0</ele><time>2026-04-24T09:40:46.998Z</time></trkpt><trkpt lat="49.156940165767786" lon="2.502038620217182"><ele>60.42857142857143</ele><time>2026-04-24T09:40:50.998Z</time></trkpt><trkpt lat="49.156972085785156" lon="2.502141001098282"><ele>60.857142857142854</ele><time>2026-04-24T09:40:54.998Z</time></trkpt><trkpt lat="49.15699217038187" lon="2.502254769356176"><ele>61.285714285714285</ele><time>2026-04-24T09:40:58.998Z</time></trkpt><trkpt lat="49.157016109243294" lon="2.502347283538478"><ele>61.714285714285715</ele><time>2026-04-24T09:41:02.998Z</time></trkpt><trkpt lat="49.157049381723816" lon="2.502436450887856"><ele>62.14285714285714</ele><time>2026-04-24T09:41:12.997Z</time></trkpt><trkpt lat="49.15708338664841" lon="2.5025281256361613"><ele>62.57142857142857</ele><time>2026-04-24T09:41:17.997Z</time></trkpt><trkpt lat="49.15712090609788" lon="2.5026181370402005"><ele>63.0</ele><time>2026-04-24T09:41:22.997Z</time></trkpt><trkpt lat="49.157154842809895" lon="2.5027011715159926"><ele>63.0</ele><time>2026-04-24T09:41:26.997Z</time></trkpt><trkpt lat="49.15718931447241" lon="2.5027867315251147"><ele>63.0</ele><time>2026-04-24T09:41:30.997Z</time></trkpt><trkpt lat="49.1572331309445" lon="2.5028634557135443"><ele>63.0</ele><time>2026-04-24T09:41:33.997Z</time></trkpt><trkpt lat="49.15728184814795" lon="2.5029437065293614"><ele>63.0</ele><time>2026-04-24T09:41:36.996Z</time></trkpt><trkpt lat="49.15732994356079" lon="2.5030290527503483"><ele>63.0</ele><time>2026-04-24T09:41:39.996Z</time></trkpt><trkpt lat="49.15737715445899" lon="2.5030972988866727"><ele>63.0</ele><time>2026-04-24T09:41:43Z</time></trkpt><trkpt lat="49.15742538704874" lon="2.5031707839636503"><ele>63.0</ele><time>2026-04-24T09:41:46Z</time></trkpt><trkpt lat="49.157471659487456" lon="2.503246538949316"><ele>62.0</ele><time>2026-04-24T09:41:49Z</time></trkpt><trkpt lat="49.157518954561255" lon="2.5033275590589708"><ele>61.0</ele><time>2026-04-24T09:41:52Z</time></trkpt><trkpt lat="49.157569558132714" lon="2.503412555168748"><ele>60.0</ele><time>2026-04-24T09:41:55Z</time></trkpt><trkpt lat="49.157629653657686" lon="2.503522410392464"><ele>59.0</ele><time>2026-04-24T09:41:58Z</time></trkpt><trkpt lat="49.15766970690612" lon="2.5036029821508814"><ele>58.0</ele><time>2026-04-24T09:42:00Z</time></trkpt><trkpt lat="49.15771156435637" lon="2.5036841004993313"><ele>57.0</ele><time>2026-04-24T09:42:02Z</time></trkpt><trkpt lat="49.15776551603636" lon="2.503784250341198"><ele>57.0</ele><time>2026-04-24T09:42:04.999Z</time></trkpt><trkpt lat="49.15781803856478" lon="2.5038780383972368"><ele>57.0</ele><time>2026-04-24T09:42:07.999Z</time></trkpt><trkpt lat="49.157858548248754" lon="2.503978960264778"><ele>57.0</ele><time>2026-04-24T09:42:10.999Z</time></trkpt><trkpt lat="49.15790142062521" lon="2.504087796037155"><ele>57.0</ele><time>2026-04-24T09:42:13.999Z</time></trkpt><trkpt lat="49.157924809717244" lon="2.504198723181425"><ele>57.0</ele><time>2026-04-24T09:42:16.999Z</time></trkpt><trkpt lat="49.15793333731911" lon="2.504301368336079"><ele>57.0</ele><time>2026-04-24T09:42:20.999Z</time></trkpt><trkpt lat="49.15796882369602" lon="2.5044133766583587"><ele>57.0</ele><time>2026-04-24T09:42:24.999Z</time></trkpt><trkpt lat="49.15799913380201" lon="2.5045312898288294"><ele>57.0</ele><time>2026-04-24T09:42:28.999Z</time></trkpt><trkpt lat="49.15802510979815" lon="2.5046346195500497"><ele>57.0</ele><time>2026-04-24T09:42:32.999Z</time></trkpt><trkpt lat="49.15804626951584" lon="2.504740187407459"><ele>57.0</ele><time>2026-04-24T09:42:36.998Z</time></trkpt><trkpt lat="49.15808772673788" lon="2.5048378175743022"><ele>57.0</ele><time>2026-04-24T09:42:41.998Z</time></trkpt><trkpt lat="49.158116021771676" lon="2.504946150838516"><ele>57.0</ele><time>2026-04-24T09:42:46.998Z</time></trkpt><trkpt lat="49.158132926845965" lon="2.505056531266071"><ele>57.14285714285714</ele><time>2026-04-24T09:42:50.998Z</time></trkpt><trkpt lat="49.1581683842212" lon="2.5051484919115494"><ele>57.28571428571428</ele><time>2026-04-24T09:42:54.998Z</time></trkpt><trkpt lat="49.15818186933343" lon="2.5052440581434365"><ele>57.42857142857143</ele><time>2026-04-24T09:42:58.998Z</time></trkpt><trkpt lat="49.15819716020536" lon="2.5053630533440048"><ele>57.57142857142857</ele><time>2026-04-24T09:43:02.998Z</time></trkpt><trkpt lat="49.158187391851186" lon="2.5054781334595884"><ele>57.714285714285715</ele><time>2026-04-24T09:43:06.998Z</time></trkpt><trkpt lat="49.158167654123176" lon="2.5055737984993742"><ele>57.85714285714286</ele><time>2026-04-24T09:43:10.997Z</time></trkpt><trkpt lat="49.15814243976891" lon="2.5056966885920007"><ele>58.00000000000001</ele><time>2026-04-24T09:43:15.997Z</time></trkpt><trkpt lat="49.15810999795746" lon="2.505808531762283"><ele>57.99999999999999</ele><time>2026-04-24T09:43:19.997Z</time></trkpt><trkpt lat="49.158078102992555" lon="2.5059056842148206"><ele>58.0</ele><time>2026-04-24T09:43:23.997Z</time></trkpt><trkpt lat="49.15804693334617" lon="2.506004957740611"><ele>58.0</ele><time>2026-04-24T09:43:27.997Z</time></trkpt><trkpt lat="49.15801863016327" lon="2.506119090837658"><ele>58.0</ele><time>2026-04-24T09:43:32.997Z</time></trkpt><trkpt lat="49.15798295242066" lon="2.5062018791859746"><ele>57.99999999999999</ele><time>2026-04-24T09:43:36.997Z</time></trkpt><trkpt lat="49.15794552366509" lon="2.5062980855058474"><ele>58.0</ele><time>2026-04-24T09:43:39.996Z</time></trkpt><trkpt lat="49.15788009633725" lon="2.506410256531305"><ele>57.28571428571429</ele><time>2026-04-24T09:43:43.996Z</time></trkpt><trkpt lat="49.15783657641131" lon="2.506482417604176"><ele>56.57142857142857</ele><time>2026-04-24T09:43:45.996Z</time></trkpt><trkpt lat="49.15776612387384" lon="2.506554254883741"><ele>55.85714285714286</ele><time>2026-04-24T09:43:49Z</time></trkpt><trkpt lat="49.15769475400589" lon="2.506600372946319"><ele>55.142857142857146</ele><time>2026-04-24T09:43:52Z</time></trkpt><trkpt lat="49.157632536781264" lon="2.5066406249797435"><ele>54.42857142857143</ele><time>2026-04-24T09:43:55Z</time></trkpt><trkpt lat="49.15755880844738" lon="2.50663326993731"><ele>53.714285714285715</ele><time>2026-04-24T09:43:58Z</time></trkpt><trkpt lat="49.15748225931982" lon="2.50665305885779"><ele>53.0</ele><time>2026-04-24T09:44:12.999Z</time></trkpt><trkpt lat="49.15740296264074" lon="2.5066567936231077"><ele>53.50000000000001</ele><time>2026-04-24T09:44:17.999Z</time></trkpt><trkpt lat="49.15733000637927" lon="2.5066617990004914"><ele>54.0</ele><time>2026-04-24T09:44:21.999Z</time></trkpt><trkpt lat="49.15724676606722" lon="2.506660021601396"><ele>54.5</ele><time>2026-04-24T09:44:25.999Z</time></trkpt><trkpt lat="49.15718313876911" lon="2.5066579010217276"><ele>55.0</ele><time>2026-04-24T09:44:28.999Z</time></trkpt><trkpt lat="49.15710364065841" lon="2.5066475947944866"><ele>55.50000000000001</ele><time>2026-04-24T09:44:32.999Z</time></trkpt><trkpt lat="49.15702069999733" lon="2.506655493783538"><ele>56.0</ele><time>2026-04-24T09:44:36.999Z</time></trkpt><trkpt lat="49.156952574669106" lon="2.506666565591435"><ele>56.0</ele><time>2026-04-24T09:44:39.999Z</time></trkpt><trkpt lat="49.15688897604697" lon="2.506669099006809"><ele>56.0</ele><time>2026-04-24T09:44:42.998Z</time></trkpt><trkpt lat="49.156819334388864" lon="2.5066740026915393"><ele>56.0</ele><time>2026-04-24T09:44:45.998Z</time></trkpt><trkpt lat="49.15673776845264" lon="2.5066705923429606"><ele>56.0</ele><time>2026-04-24T09:44:49.998Z</time></trkpt><trkpt lat="49.15667259711043" lon="2.506672897550328"><ele>56.0</ele><time>2026-04-24T09:44:52.998Z</time></trkpt><trkpt lat="49.1565973696149" lon="2.506684227833657"><ele>56.0</ele><time>2026-04-24T09:44:55.998Z</time></trkpt><trkpt lat="49.15652034227371" lon="2.506698549818422"><ele>56.0</ele><time>2026-04-24T09:44:58.998Z</time></trkpt><trkpt lat="49.156445071656584" lon="2.5067015794010676"><ele>55.57142857142857</ele><time>2026-04-24T09:45:02.998Z</time></trkpt><trkpt lat="49.15637086979987" lon="2.506695577902478"><ele>55.14285714285714</ele><time>2026-04-24T09:45:06.998Z</time></trkpt><trkpt lat="49.15629542672679" lon="2.5066877764095588"><ele>54.714285714285715</ele><time>2026-04-24T09:45:10.998Z</time></trkpt><trkpt lat="49.156233173348966" lon="2.5067135247221763"><ele>54.285714285714285</ele><time>2026-04-24T09:45:14.997Z</time></trkpt><trkpt lat="49.156155255565174" lon="2.5067365169539877"><ele>53.857142857142854</ele><time>2026-04-24T09:45:19.997Z</time></trkpt><trkpt lat="49.15609641558369" lon="2.506788216295627"><ele>53.42857142857143</ele><time>2026-04-24T09:45:40.997Z</time></trkpt><trkpt lat="49.15601790959948" lon="2.5067313875624815"><ele>53.0</ele><time>2026-04-24T09:45:44.996Z</time></trkpt><trkpt lat="49.15594997801309" lon="2.5066721713431743"><ele>53.0</ele><time>2026-04-24T09:45:47.996Z</time></trkpt><trkpt lat="49.15588375285831" lon="2.5066201734096647"><ele>53.0</ele><time>2026-04-24T09:45:51.996Z</time></trkpt><trkpt lat="49.1558338901421" lon="2.5065595712236712"><ele>53.0</ele><time>2026-04-24T09:45:59Z</time></trkpt><trkpt lat="49.15577256097018" lon="2.5065014846232714"><ele>53.0</ele><time>2026-04-24T09:46:05Z</time></trkpt><trkpt lat="49.15571387375535" lon="2.5064450572863333"><ele>53.0</ele><time>2026-04-24T09:46:11Z</time></trkpt><trkpt lat="49.15564669267444" lon="2.506367802907725"><ele>53.0</ele><time>2026-04-24T09:46:20.999Z</time></trkpt><trkpt lat="49.155592530849546" lon="2.506304417884567"><ele>53.0</ele><time>2026-04-24T09:46:23.999Z</time></trkpt><trkpt lat="49.1555368489073" lon="2.506255844811061"><ele>53.42857142857143</ele><time>2026-04-24T09:46:26.999Z</time></trkpt><trkpt lat="49.155477606601565" lon="2.506178062111311"><ele>53.857142857142854</ele><time>2026-04-24T09:46:30.999Z</time></trkpt><trkpt lat="49.15542246409261" lon="2.5061040697963466"><ele>54.285714285714285</ele><time>2026-04-24T09:46:33.999Z</time></trkpt><trkpt lat="49.15536193022829" lon="2.50604331403267"><ele>54.714285714285715</ele><time>2026-04-24T09:46:36.999Z</time></trkpt><trkpt lat="49.155301813914534" lon="2.50597873526355"><ele>55.14285714285714</ele><time>2026-04-24T09:46:39.999Z</time></trkpt><trkpt lat="49.155243408926346" lon="2.505922274765391"><ele>55.57142857142857</ele><time>2026-04-24T09:46:42.999Z</time></trkpt><trkpt lat="49.15518185729713" lon="2.5058638122040726"><ele>56.0</ele><time>2026-04-24T09:46:45.999Z</time></trkpt><trkpt lat="49.155122380047715" lon="2.5058070130985244"><ele>56.0</ele><time>2026-04-24T09:46:48.998Z</time></trkpt><trkpt lat="49.15506427731693" lon="2.5057455360954766"><ele>56.0</ele><time>2026-04-24T09:46:51.998Z</time></trkpt><trkpt lat="49.15499885390438" lon="2.5056823340377186"><ele>56.0</ele><time>2026-04-24T09:46:54.998Z</time></trkpt><trkpt lat="49.15494587353249" lon="2.5056294519295896"><ele>56.0</ele><time>2026-04-24T09:46:57.998Z</time></trkpt><trkpt lat="49.15488512769107" lon="2.5055864141898865"><ele>56.0</ele><time>2026-04-24T09:47:00.998Z</time></trkpt><trkpt lat="49.15482820396761" lon="2.5055326242982296"><ele>56.0</ele><time>2026-04-24T09:47:05.998Z</time></trkpt><trkpt lat="49.154761992964765" lon="2.505454431137251"><ele>56.0</ele><time>2026-04-24T09:47:09.998Z</time></trkpt><trkpt lat="49.154710054379436" lon="2.5053921985209597"><ele>57.0</ele><time>2026-04-24T09:47:12.998Z</time></trkpt><trkpt lat="49.154641784052394" lon="2.5053401807270266"><ele>58.0</ele><time>2026-04-24T09:47:16.998Z</time></trkpt><trkpt lat="49.1545923150289" lon="2.505279772090163"><ele>59.0</ele><time>2026-04-24T09:47:19.997Z</time></trkpt><trkpt lat="49.15453562660275" lon="2.5052177860911646"><ele>60.0</ele><time>2026-04-24T09:47:23.997Z</time></trkpt><trkpt lat="49.15446604226461" lon="2.5051583379989544"><ele>61.0</ele><time>2026-04-24T09:47:28.997Z</time></trkpt><trkpt lat="49.15441167232564" lon="2.5050874763991944"><ele>62.0</ele><time>2026-04-24T09:47:32.997Z</time></trkpt><trkpt lat="49.15435090718689" lon="2.5050073132212556"><ele>63.0</ele><time>2026-04-24T09:47:43.997Z</time></trkpt><trkpt lat="49.15428442895006" lon="2.504932208546605"><ele>63.0</ele><time>2026-04-24T09:47:47.997Z</time></trkpt><trkpt lat="49.15422769930849" lon="2.504876091159175"><ele>63.0</ele><time>2026-04-24T09:47:50.996Z</time></trkpt><trkpt lat="49.15416896749492" lon="2.5048207579002533"><ele>63.0</ele><time>2026-04-24T09:47:53.996Z</time></trkpt><trkpt lat="49.15411450656476" lon="2.5047598182351627"><ele>63.0</ele><time>2026-04-24T09:47:56.996Z</time></trkpt><trkpt lat="49.15406064364867" lon="2.5047056799745833"><ele>63.0</ele><time>2026-04-24T09:48:00Z</time></trkpt><trkpt lat="49.1540028501907" lon="2.504652401678538"><ele>63.0</ele><time>2026-04-24T09:48:03Z</time></trkpt><trkpt lat="49.15394494728616" lon="2.5045957117939643"><ele>63.0</ele><time>2026-04-24T09:48:06Z</time></trkpt><trkpt lat="49.153884927506525" lon="2.5045346466168503"><ele>63.42857142857143</ele><time>2026-04-24T09:48:09Z</time></trkpt><trkpt lat="49.153829761993684" lon="2.5044817093229117"><ele>63.85714285714286</ele><time>2026-04-24T09:48:12Z</time></trkpt><trkpt lat="49.15377629128205" lon="2.504430498592542"><ele>64.28571428571428</ele><time>2026-04-24T09:48:15Z</time></trkpt><trkpt lat="49.153720042428056" lon="2.504373248489288"><ele>64.71428571428572</ele><time>2026-04-24T09:48:18Z</time></trkpt><trkpt lat="49.15366118090571" lon="2.5043268262575267"><ele>65.14285714285714</ele><time>2026-04-24T09:48:20.999Z</time></trkpt><trkpt lat="49.15359904319164" lon="2.50425265940906"><ele>65.57142857142857</ele><time>2026-04-24T09:48:24.999Z</time></trkpt><trkpt lat="49.15355025180308" lon="2.504189806123225"><ele>66.0</ele><time>2026-04-24T09:48:27.999Z</time></trkpt><trkpt lat="49.15348609045997" lon="2.504118862530791"><ele>66.0</ele><time>2026-04-24T09:48:31.999Z</time></trkpt><trkpt lat="49.15343378269367" lon="2.504064643829797"><ele>66.0</ele><time>2026-04-24T09:48:34.999Z</time></trkpt><trkpt lat="49.153378202554876" lon="2.504007476259798"><ele>66.0</ele><time>2026-04-24T09:48:37.999Z</time></trkpt><trkpt lat="49.15332296125066" lon="2.5039534040441196"><ele>66.0</ele><time>2026-04-24T09:48:40.999Z</time></trkpt><trkpt lat="49.15325931907898" lon="2.5038815287252634"><ele>66.0</ele><time>2026-04-24T09:48:44.999Z</time></trkpt><trkpt lat="49.153192548530086" lon="2.5038200187948783"><ele>66.0</ele><time>2026-04-24T09:48:48.999Z</time></trkpt><trkpt lat="49.15313326871391" lon="2.5037612087123797"><ele>66.0</ele><time>2026-04-24T09:48:51.998Z</time></trkpt><trkpt lat="49.15307793769178" lon="2.5037128392630255"><ele>65.85714285714286</ele><time>2026-04-24T09:48:54.998Z</time></trkpt><trkpt lat="49.153027539384546" lon="2.5036532521746113"><ele>65.71428571428572</ele><time>2026-04-24T09:48:57.998Z</time></trkpt><trkpt lat="49.152960800174135" lon="2.503586156552487"><ele>65.57142857142858</ele><time>2026-04-24T09:49:01.998Z</time></trkpt><trkpt lat="49.15290748476335" lon="2.5035302954177627"><ele>65.42857142857143</ele><time>2026-04-24T09:49:04.998Z</time></trkpt><trkpt lat="49.15283913313826" lon="2.503459185581201"><ele>65.28571428571429</ele><time>2026-04-24T09:49:08.998Z</time></trkpt><trkpt lat="49.15278506517258" lon="2.503405321636806"><ele>65.14285714285715</ele><time>2026-04-24T09:49:11.998Z</time></trkpt><trkpt lat="49.152715767463945" lon="2.5033367786596807"><ele>65.0</ele><time>2026-04-24T09:49:15.998Z</time></trkpt><trkpt lat="49.15263944500764" lon="2.5032653827046096"><ele>65.0</ele><time>2026-04-24T09:49:19.998Z</time></trkpt><trkpt lat="49.15257091472172" lon="2.5031975395967594"><ele>65.0</ele><time>2026-04-24T09:49:23.997Z</time></trkpt><trkpt lat="49.15250672110227" lon="2.5031250127012363"><ele>65.0</ele><time>2026-04-24T09:49:27.997Z</time></trkpt><trkpt lat="49.15244584075437" lon="2.5030468422268912"><ele>65.0</ele><time>2026-04-24T09:49:31.997Z</time></trkpt><trkpt lat="49.15239181912278" lon="2.5029923165850643"><ele>65.0</ele><time>2026-04-24T09:49:34.997Z</time></trkpt><trkpt lat="49.152336079896955" lon="2.5029393377207647"><ele>65.0</ele><time>2026-04-24T09:49:37.997Z</time></trkpt><trkpt lat="49.1522675890107" lon="2.5028755584505866"><ele>65.16666666666667</ele><time>2026-04-24T09:49:41.997Z</time></trkpt><trkpt lat="49.1522002966034" lon="2.502804531640714"><ele>65.33333333333334</ele><time>2026-04-24T09:49:45.997Z</time></trkpt><trkpt lat="49.15213162061217" lon="2.5027341160424363"><ele>65.5</ele><time>2026-04-24T09:49:49.997Z</time></trkpt><trkpt lat="49.15206675844252" lon="2.5026619295181125"><ele>65.66666666666667</ele><time>2026-04-24T09:49:53.997Z</time></trkpt><trkpt lat="49.15201117324594" lon="2.50260238175484"><ele>65.83333333333333</ele><time>2026-04-24T09:49:57.996Z</time></trkpt><trkpt lat="49.151956512653946" lon="2.5025480429669016"><ele>66.0</ele><time>2026-04-24T09:50:00.996Z</time></trkpt><trkpt lat="49.151899629814906" lon="2.5024804935260536"><ele>66.0</ele><time>2026-04-24T09:50:05Z</time></trkpt><trkpt lat="49.151839850785244" lon="2.5024170958505394"><ele>66.0</ele><time>2026-04-24T09:50:09Z</time></trkpt><trkpt lat="49.15178105154801" lon="2.502376342127602"><ele>66.0</ele><time>2026-04-24T09:50:13Z</time></trkpt><trkpt lat="49.15171798972953" lon="2.5023820560636247"><ele>66.0</ele><time>2026-04-24T09:50:43.999Z</time></trkpt><trkpt lat="49.151648613479615" lon="2.502425779613322"><ele>66.0</ele><time>2026-04-24T09:50:48.999Z</time></trkpt><trkpt lat="49.151581165512006" lon="2.502462762701394"><ele>66.0</ele><time>2026-04-24T09:50:53.999Z</time></trkpt><trkpt lat="49.151514005140946" lon="2.50250906284956"><ele>66.0</ele><time>2026-04-24T09:50:57.998Z</time></trkpt><trkpt lat="49.15144661569959" lon="2.5025521406126146"><ele>66.5</ele><time>2026-04-24T09:51:01.998Z</time></trkpt><trkpt lat="49.15136762574037" lon="2.5025926940585546"><ele>67.0</ele><time>2026-04-24T09:51:06.998Z</time></trkpt><trkpt lat="49.151305120442814" lon="2.5026169344711335"><ele>67.5</ele><time>2026-04-24T09:51:10.998Z</time></trkpt><trkpt lat="49.151244595581964" lon="2.5026600570540696"><ele>68.0</ele><time>2026-04-24T09:51:13.998Z</time></trkpt><trkpt lat="49.151172548409825" lon="2.502692678813037"><ele>68.5</ele><time>2026-04-24T09:51:17.998Z</time></trkpt><trkpt lat="49.151095946843284" lon="2.5027474242589465"><ele>69.0</ele><time>2026-04-24T09:51:21.998Z</time></trkpt><trkpt lat="49.151023893104274" lon="2.5027861149849238"><ele>69.0</ele><time>2026-04-24T09:51:25.998Z</time></trkpt><trkpt lat="49.15096256885184" lon="2.5028261262211737"><ele>69.0</ele><time>2026-04-24T09:51:28.997Z</time></trkpt><trkpt lat="49.15089440351788" lon="2.5028657362541944"><ele>69.0</ele><time>2026-04-24T09:51:31.997Z</time></trkpt><trkpt lat="49.15082064362566" lon="2.5029230029040326"><ele>69.0</ele><time>2026-04-24T09:51:35.997Z</time></trkpt><trkpt lat="49.150759471570545" lon="2.502954868768919"><ele>69.0</ele><time>2026-04-24T09:51:38.997Z</time></trkpt><trkpt lat="49.150688367043685" lon="2.503002018871823"><ele>69.0</ele><time>2026-04-24T09:51:42.997Z</time></trkpt><trkpt lat="49.1506295941391" lon="2.5030403066397517"><ele>69.0</ele><time>2026-04-24T09:51:45.997Z</time></trkpt><trkpt lat="49.150562659043366" lon="2.503070631237582"><ele>69.14285714285714</ele><time>2026-04-24T09:51:49.997Z</time></trkpt><trkpt lat="49.15049219591113" lon="2.50311399431521"><ele>69.28571428571429</ele><time>2026-04-24T09:51:53.997Z</time></trkpt><trkpt lat="49.150427762359115" lon="2.5031659784517504"><ele>69.42857142857143</ele><time>2026-04-24T09:51:57.997Z</time></trkpt><trkpt lat="49.150357127048146" lon="2.5032015462328934"><ele>69.57142857142857</ele><time>2026-04-24T09:52:01.996Z</time></trkpt><trkpt lat="49.15029682681797" lon="2.503232676344429"><ele>69.71428571428572</ele><time>2026-04-24T09:52:04.996Z</time></trkpt><trkpt lat="49.15023758939425" lon="2.5032682591285984"><ele>69.85714285714286</ele><time>2026-04-24T09:52:08.996Z</time></trkpt><trkpt lat="49.150165905975285" lon="2.5033199169598848"><ele>70.0</ele><time>2026-04-24T09:52:13Z</time></trkpt><trkpt lat="49.15010144728502" lon="2.5033531113350236"><ele>70.0</ele><time>2026-04-24T09:52:17Z</time></trkpt><trkpt lat="49.15002313669431" lon="2.503393154085423"><ele>70.0</ele><time>2026-04-24T09:52:22Z</time></trkpt><trkpt lat="49.149960750766134" lon="2.5034312801712875"><ele>70.0</ele><time>2026-04-24T09:52:26Z</time></trkpt><trkpt lat="49.14989403835105" lon="2.5034710099829955"><ele>70.0</ele><time>2026-04-24T09:52:30Z</time></trkpt><trkpt lat="49.149826052625556" lon="2.503533202917168"><ele>70.0</ele><time>2026-04-24T09:52:34.999Z</time></trkpt><trkpt lat="49.14975332353391" lon="2.503555941393407"><ele>70.0</ele><time>2026-04-24T09:52:39.999Z</time></trkpt><trkpt lat="49.14969362926926" lon="2.5035936158849954"><ele>70.0</ele><time>2026-04-24T09:52:41.999Z</time></trkpt><trkpt lat="49.149633602605014" lon="2.5036332462902546"><ele>70.16666666666666</ele><time>2026-04-24T09:52:45.999Z</time></trkpt><trkpt lat="49.14955549878836" lon="2.5036732935652286"><ele>70.33333333333333</ele><time>2026-04-24T09:52:49.999Z</time></trkpt><trkpt lat="49.14948448391749" lon="2.5037201399554783"><ele>70.5</ele><time>2026-04-24T09:52:53.999Z</time></trkpt><trkpt lat="49.149418387873524" lon="2.5037637788217655"><ele>70.66666666666667</ele><time>2026-04-24T09:52:57.999Z</time></trkpt><trkpt lat="49.149358775144414" lon="2.5038028244566286"><ele>70.83333333333334</ele><time>2026-04-24T09:53:01.998Z</time></trkpt><trkpt lat="49.149284052878016" lon="2.5038432732112232"><ele>71.0</ele><time>2026-04-24T09:53:05.998Z</time></trkpt><trkpt lat="49.149209294837895" lon="2.503890759534953"><ele>70.71428571428571</ele><time>2026-04-24T09:53:09.998Z</time></trkpt><trkpt lat="49.14913705710692" lon="2.503918101210895"><ele>70.42857142857142</ele><time>2026-04-24T09:53:13.998Z</time></trkpt><trkpt lat="49.14907628397752" lon="2.5039512137003923"><ele>70.14285714285714</ele><time>2026-04-24T09:53:16.998Z</time></trkpt><trkpt lat="49.14900959716944" lon="2.504003466974721"><ele>69.85714285714286</ele><time>2026-04-24T09:53:19.998Z</time></trkpt><trkpt lat="49.148949804446666" lon="2.5040470411435076"><ele>69.57142857142858</ele><time>2026-04-24T09:53:22.998Z</time></trkpt><trkpt lat="49.14886586254144" lon="2.5040991518916424"><ele>69.28571428571429</ele><time>2026-04-24T09:53:25.998Z</time></trkpt><trkpt lat="49.14879258743615" lon="2.504134144682214"><ele>69.0</ele><time>2026-04-24T09:53:28.998Z</time></trkpt><trkpt lat="49.14872562183455" lon="2.504172793551239"><ele>68.85714285714286</ele><time>2026-04-24T09:53:31.998Z</time></trkpt><trkpt lat="49.14865223786095" lon="2.5042275107928735"><ele>68.71428571428572</ele><time>2026-04-24T09:53:35.997Z</time></trkpt><trkpt lat="49.148605320836374" lon="2.504303233954519"><ele>68.57142857142857</ele><time>2026-04-24T09:53:39.997Z</time></trkpt><trkpt lat="49.14854343495899" lon="2.5043460153554724"><ele>68.42857142857143</ele><time>2026-04-24T09:53:43.997Z</time></trkpt><trkpt lat="49.14848058796387" lon="2.504356503482777"><ele>68.28571428571428</ele><time>2026-04-24T09:53:48.997Z</time></trkpt><trkpt lat="49.14841017713713" lon="2.50433478696533"><ele>68.14285714285714</ele><time>2026-04-24T09:53:53.997Z</time></trkpt><trkpt lat="49.1483173082904" lon="2.504349323287629"><ele>68.0</ele><time>2026-04-24T09:53:57.997Z</time></trkpt><trkpt lat="49.148243482858426" lon="2.5043464705089034"><ele>67.28571428571428</ele><time>2026-04-24T09:54:00.997Z</time></trkpt><trkpt lat="49.148170393605895" lon="2.504350879368309"><ele>66.57142857142857</ele><time>2026-04-24T09:54:03.997Z</time></trkpt><trkpt lat="49.148101083609376" lon="2.5043480906065563"><ele>65.85714285714286</ele><time>2026-04-24T09:54:06.996Z</time></trkpt><trkpt lat="49.14802637010105" lon="2.5043459151128347"><ele>65.14285714285714</ele><time>2026-04-24T09:54:09.996Z</time></trkpt><trkpt lat="49.14796112767525" lon="2.5043432325931207"><ele>64.42857142857143</ele><time>2026-04-24T09:54:12.996Z</time></trkpt><trkpt lat="49.147880374946496" lon="2.5043458158883536"><ele>63.714285714285715</ele><time>2026-04-24T09:54:17Z</time></trkpt><trkpt lat="49.147814128936524" lon="2.50435163145427"><ele>63.0</ele><time>2026-04-24T09:54:20Z</time></trkpt><trkpt lat="49.147746116969216" lon="2.5043587833534118"><ele>63.0</ele><time>2026-04-24T09:54:24Z</time></trkpt><trkpt lat="49.14767171084886" lon="2.5043747525009845"><ele>63.0</ele><time>2026-04-24T09:54:28Z</time></trkpt><trkpt lat="49.14760271568869" lon="2.5043839533420944"><ele>63.0</ele><time>2026-04-24T09:54:32Z</time></trkpt><trkpt lat="49.147525900640765" lon="2.504381500520133"><ele>63.0</ele><time>2026-04-24T09:54:35.999Z</time></trkpt><trkpt lat="49.14745426034862" lon="2.5043740523458795"><ele>63.0</ele><time>2026-04-24T09:54:39.999Z</time></trkpt><trkpt lat="49.147381937593146" lon="2.5043726456780107"><ele>63.0</ele><time>2026-04-24T09:54:43.999Z</time></trkpt><trkpt lat="49.14730925315331" lon="2.504378684117884"><ele>63.0</ele><time>2026-04-24T09:54:47.999Z</time></trkpt><trkpt lat="49.14723402117636" lon="2.5043904985015617"><ele>62.85714285714286</ele><time>2026-04-24T09:54:51.999Z</time></trkpt><trkpt lat="49.14715170038098" lon="2.504397948373344"><ele>62.714285714285715</ele><time>2026-04-24T09:54:55.999Z</time></trkpt><trkpt lat="49.147085535139475" lon="2.504390859762892"><ele>62.57142857142857</ele><time>2026-04-24T09:54:59.999Z</time></trkpt><trkpt lat="49.147013693775165" lon="2.5043879706948617"><ele>62.42857142857143</ele><time>2026-04-24T09:55:03.999Z</time></trkpt><trkpt lat="49.14693935450461" lon="2.5043843471363494"><ele>62.28571428571429</ele><time>2026-04-24T09:55:07.998Z</time></trkpt><trkpt lat="49.146873548355835" lon="2.5043840515533886"><ele>62.142857142857146</ele><time>2026-04-24T09:55:11.998Z</time></trkpt><trkpt lat="49.146799748061596" lon="2.504385693992546"><ele>62.0</ele><time>2026-04-24T09:55:15.998Z</time></trkpt><trkpt lat="49.14672686556075" lon="2.5043869665869916"><ele>62.00000000000001</ele><time>2026-04-24T09:55:19.998Z</time></trkpt><trkpt lat="49.14664679202278" lon="2.5043960548482085"><ele>62.0</ele><time>2026-04-24T09:55:23.998Z</time></trkpt><trkpt lat="49.146574103635075" lon="2.504398596654288"><ele>62.0</ele><time>2026-04-24T09:55:27.998Z</time></trkpt><trkpt lat="49.14649663692638" lon="2.5044014065506848"><ele>62.0</ele><time>2026-04-24T09:55:32.998Z</time></trkpt><trkpt lat="49.146416582388056" lon="2.504407122471126"><ele>62.00000000000001</ele><time>2026-04-24T09:55:36.997Z</time></trkpt><trkpt lat="49.146338603727955" lon="2.5044135137068886"><ele>62.0</ele><time>2026-04-24T09:55:40.997Z</time></trkpt><trkpt lat="49.14626212257563" lon="2.5044126692268027"><ele>62.66666666666667</ele><time>2026-04-24T09:55:44.997Z</time></trkpt><trkpt lat="49.14618120736337" lon="2.50441697241904"><ele>63.333333333333336</ele><time>2026-04-24T09:55:48.997Z</time></trkpt><trkpt lat="49.146097781034854" lon="2.504420008470492"><ele>64.0</ele><time>2026-04-24T09:55:52.997Z</time></trkpt><trkpt lat="49.146021035323585" lon="2.504420412840738"><ele>64.66666666666667</ele><time>2026-04-24T09:55:56.997Z</time></trkpt><trkpt lat="49.14594220802422" lon="2.504429590030096"><ele>65.33333333333333</ele><time>2026-04-24T09:56:00.997Z</time></trkpt><trkpt lat="49.14586423163334" lon="2.504441655533044"><ele>66.0</ele><time>2026-04-24T09:56:04.997Z</time></trkpt><trkpt lat="49.14578591875294" lon="2.504439247316281"><ele>67.0</ele><time>2026-04-24T09:56:08.996Z</time></trkpt><trkpt lat="49.14570596289464" lon="2.504439855783446"><ele>68.0</ele><time>2026-04-24T09:56:12.996Z</time></trkpt><trkpt lat="49.14562942034526" lon="2.5044413872704827"><ele>69.0</ele><time>2026-04-24T09:56:16.996Z</time></trkpt><trkpt lat="49.14555997035809" lon="2.5044591475114117"><ele>70.0</ele><time>2026-04-24T09:56:21Z</time></trkpt><trkpt lat="49.14549508658589" lon="2.504454267863718"><ele>71.0</ele><time>2026-04-24T09:56:26Z</time></trkpt><trkpt lat="49.14542652658494" lon="2.5044564252198405"><ele>72.0</ele><time>2026-04-24T09:56:56.999Z</time></trkpt><trkpt lat="49.14536239526834" lon="2.504454916345825"><ele>73.0</ele><time>2026-04-24T09:57:00.999Z</time></trkpt><trkpt lat="49.14528636189212" lon="2.504459864786374"><ele>73.0</ele><time>2026-04-24T09:57:04.999Z</time></trkpt><trkpt lat="49.14520910223433" lon="2.504461607208071"><ele>73.0</ele><time>2026-04-24T09:57:08.999Z</time></trkpt><trkpt lat="49.14512624554405" lon="2.504463688547131"><ele>73.0</ele><time>2026-04-24T09:57:12.998Z</time></trkpt><trkpt lat="49.145061067363656" lon="2.5044685705268743"><ele>73.0</ele><time>2026-04-24T09:57:15.998Z</time></trkpt><trkpt lat="49.144993462730156" lon="2.50446180612693"><ele>73.0</ele><time>2026-04-24T09:57:18.998Z</time></trkpt><trkpt lat="49.14492712835785" lon="2.504469172037933"><ele>73.0</ele><time>2026-04-24T09:57:21.998Z</time></trkpt><trkpt lat="49.14486022968828" lon="2.5044776185948914"><ele>73.0</ele><time>2026-04-24T09:57:24.998Z</time></trkpt><trkpt lat="49.14479706472663" lon="2.504466669788906"><ele>73.42857142857143</ele><time>2026-04-24T09:57:27.998Z</time></trkpt><trkpt lat="49.14471591127416" lon="2.504462747372062"><ele>73.85714285714286</ele><time>2026-04-24T09:57:31.998Z</time></trkpt><trkpt lat="49.14464143424003" lon="2.5044771769350076"><ele>74.28571428571428</ele><time>2026-04-24T09:57:34.998Z</time></trkpt><trkpt lat="49.14457215619368" lon="2.5044758580142243"><ele>74.71428571428572</ele><time>2026-04-24T09:57:37.998Z</time></trkpt><trkpt lat="49.1444995050844" lon="2.5044726410263314"><ele>75.14285714285715</ele><time>2026-04-24T09:57:40.998Z</time></trkpt><trkpt lat="49.14443497851349" lon="2.5044763040855074"><ele>75.57142857142857</ele><time>2026-04-24T09:57:43.997Z</time></trkpt><trkpt lat="49.14435319078523" lon="2.5044840144122262"><ele>76.0</ele><time>2026-04-24T09:57:47.997Z</time></trkpt><trkpt lat="49.14428434735904" lon="2.504483662762305"><ele>76.0</ele><time>2026-04-24T09:57:50.997Z</time></trkpt><trkpt lat="49.14421052140512" lon="2.5044908725543933"><ele>76.0</ele><time>2026-04-24T09:57:54.997Z</time></trkpt><trkpt lat="49.14413195198627" lon="2.5044607422329666"><ele>76.0</ele><time>2026-04-24T09:57:58.997Z</time></trkpt><trkpt lat="49.14406220947521" lon="2.50447757392029"><ele>76.0</ele><time>2026-04-24T09:58:02.997Z</time></trkpt><trkpt lat="49.14399143358492" lon="2.5044879377776077"><ele>76.0</ele><time>2026-04-24T09:58:05.997Z</time></trkpt><trkpt lat="49.14390954714707" lon="2.504490807325492"><ele>76.0</ele><time>2026-04-24T09:58:09.997Z</time></trkpt><trkpt lat="49.14382503884878" lon="2.5045054211281688"><ele>76.42857142857143</ele><time>2026-04-24T09:58:13.997Z</time></trkpt><trkpt lat="49.14375416702551" lon="2.504502698822864"><ele>76.85714285714286</ele><time>2026-04-24T09:58:16.996Z</time></trkpt><trkpt lat="49.143683076762514" lon="2.5045070596301406"><ele>77.28571428571429</ele><time>2026-04-24T09:58:19.996Z</time></trkpt><trkpt lat="49.14359688077091" lon="2.504517380607633"><ele>77.71428571428572</ele><time>2026-04-24T09:58:23.996Z</time></trkpt><trkpt lat="49.14353229377613" lon="2.504520763889009"><ele>78.14285714285714</ele><time>2026-04-24T09:58:27Z</time></trkpt><trkpt lat="49.14345665405596" lon="2.504492613488157"><ele>78.57142857142858</ele><time>2026-04-24T09:58:31Z</time></trkpt><trkpt lat="49.14338903998038" lon="2.504522176834484"><ele>79.0</ele><time>2026-04-24T09:58:34Z</time></trkpt><trkpt lat="49.143307725767" lon="2.5045336499007007"><ele>79.00000000000001</ele><time>2026-04-24T09:58:38Z</time></trkpt><trkpt lat="49.143241055882335" lon="2.504533430396577"><ele>79.0</ele><time>2026-04-24T09:58:41Z</time></trkpt><trkpt lat="49.14317569514695" lon="2.5045332221172245"><ele>79.0</ele><time>2026-04-24T09:58:44Z</time></trkpt><trkpt lat="49.14311252387738" lon="2.504522997580663"><ele>79.0</ele><time>2026-04-24T09:58:46.999Z</time></trkpt><trkpt lat="49.14304555778136" lon="2.5045219059356496"><ele>79.0</ele><time>2026-04-24T09:58:49.999Z</time></trkpt><trkpt lat="49.1429771302232" lon="2.504533861268628"><ele>79.00000000000001</ele><time>2026-04-24T09:58:52.999Z</time></trkpt><trkpt lat="49.14289894273907" lon="2.50452933379322"><ele>79.0</ele><time>2026-04-24T09:58:56.999Z</time></trkpt><trkpt lat="49.142834850770925" lon="2.5045344690323432"><ele>78.85714285714286</ele><time>2026-04-24T09:58:59.999Z</time></trkpt><trkpt lat="49.142751734769476" lon="2.504535542927397"><ele>78.71428571428572</ele><time>2026-04-24T09:59:03.999Z</time></trkpt><trkpt lat="49.14268377775217" lon="2.504532764464532"><ele>78.57142857142858</ele><time>2026-04-24T09:59:06.999Z</time></trkpt><trkpt lat="49.14260275316634" lon="2.5045418042415184"><ele>78.42857142857143</ele><time>2026-04-24T09:59:10.999Z</time></trkpt><trkpt lat="49.1425352926581" lon="2.5045439897242767"><ele>78.28571428571428</ele><time>2026-04-24T09:59:13.999Z</time></trkpt><trkpt lat="49.14246498823271" lon="2.5045419371643725"><ele>78.14285714285715</ele><time>2026-04-24T09:59:16.998Z</time></trkpt><trkpt lat="49.14239909163476" lon="2.5045466504199356"><ele>78.0</ele><time>2026-04-24T09:59:19.998Z</time></trkpt><trkpt lat="49.14233581529997" lon="2.5045418359696363"><ele>77.66666666666667</ele><time>2026-04-24T09:59:22.998Z</time></trkpt><trkpt lat="49.14225401848255" lon="2.5045504629524946"><ele>77.33333333333333</ele><time>2026-04-24T09:59:26.998Z</time></trkpt><trkpt lat="49.14218060424423" lon="2.5045505658587444"><ele>77.0</ele><time>2026-04-24T09:59:30.998Z</time></trkpt><trkpt lat="49.14210671239966" lon="2.5045564577292403"><ele>76.66666666666666</ele><time>2026-04-24T09:59:34.998Z</time></trkpt><trkpt lat="49.142023983709855" lon="2.504561899568729"><ele>76.33333333333333</ele><time>2026-04-24T09:59:38.998Z</time></trkpt><trkpt lat="49.14195470274772" lon="2.5045598394318893"><ele>76.0</ele><time>2026-04-24T09:59:41.998Z</time></trkpt><trkpt lat="49.14187401569185" lon="2.5045628069405286"><ele>76.0</ele><time>2026-04-24T09:59:45.998Z</time></trkpt><trkpt lat="49.14180571722478" lon="2.5045640346676943"><ele>76.0</ele><time>2026-04-24T09:59:48.997Z</time></trkpt><trkpt lat="49.141727716170315" lon="2.5045623248301876"><ele>76.0</ele><time>2026-04-24T09:59:52.997Z</time></trkpt><trkpt lat="49.14165474029974" lon="2.504568428499981"><ele>76.0</ele><time>2026-04-24T09:59:56.997Z</time></trkpt><trkpt lat="49.141574842736254" lon="2.5045769793714343"><ele>76.0</ele><time>2026-04-24T10:00:00.997Z</time></trkpt><trkpt lat="49.141496100213324" lon="2.504578659670056"><ele>76.0</ele><time>2026-04-24T10:00:04.997Z</time></trkpt><trkpt lat="49.141416843206564" lon="2.5045818602334573"><ele>76.0</ele><time>2026-04-24T10:00:08.997Z</time></trkpt><trkpt lat="49.141338000944295" lon="2.504577111974739"><ele>76.0</ele><time>2026-04-24T10:00:12.997Z</time></trkpt><trkpt lat="49.141259049321604" lon="2.504577943981709"><ele>76.0</ele><time>2026-04-24T10:00:16.997Z</time></trkpt><trkpt lat="49.14119608090901" lon="2.504576715921499"><ele>76.0</ele><time>2026-04-24T10:00:19.996Z</time></trkpt><trkpt lat="49.141115487240604" lon="2.504579918914077"><ele>76.0</ele><time>2026-04-24T10:00:23.996Z</time></trkpt><trkpt lat="49.14103793010921" lon="2.504583343535563"><ele>76.0</ele><time>2026-04-24T10:00:27.996Z</time></trkpt><trkpt lat="49.140960476161546" lon="2.5045907313769145"><ele>75.83333333333333</ele><time>2026-04-24T10:00:32Z</time></trkpt><trkpt lat="49.14088116724122" lon="2.504594496359423"><ele>75.66666666666666</ele><time>2026-04-24T10:00:36Z</time></trkpt><trkpt lat="49.14080910692758" lon="2.504595299223315"><ele>75.5</ele><time>2026-04-24T10:00:40Z</time></trkpt><trkpt lat="49.14072834295512" lon="2.5045974204846737"><ele>75.33333333333333</ele><time>2026-04-24T10:00:44Z</time></trkpt><trkpt lat="49.14066263458512" lon="2.5045916715912404"><ele>75.16666666666667</ele><time>2026-04-24T10:00:47Z</time></trkpt><trkpt lat="49.14058500478004" lon="2.504593916151501"><ele>75.0</ele><time>2026-04-24T10:00:49.999Z</time></trkpt><trkpt lat="49.14051048246767" lon="2.5045947764684535"><ele>74.83333333333333</ele><time>2026-04-24T10:00:52.999Z</time></trkpt><trkpt lat="49.14044611077438" lon="2.5046016754133062"><ele>74.66666666666667</ele><time>2026-04-24T10:00:55.999Z</time></trkpt><trkpt lat="49.14038093753696" lon="2.5045917730960343"><ele>74.5</ele><time>2026-04-24T10:00:58.999Z</time></trkpt><trkpt lat="49.14030027369784" lon="2.5045961871129334"><ele>74.33333333333334</ele><time>2026-04-24T10:01:01.999Z</time></trkpt><trkpt lat="49.140215457861785" lon="2.5045997652679524"><ele>74.16666666666667</ele><time>2026-04-24T10:01:04.999Z</time></trkpt><trkpt lat="49.14013534565724" lon="2.504609226958254"><ele>74.0</ele><time>2026-04-24T10:01:07.999Z</time></trkpt><trkpt lat="49.14005845026804" lon="2.504610412847687"><ele>74.0</ele><time>2026-04-24T10:01:10.999Z</time></trkpt><trkpt lat="49.13997823737633" lon="2.504624658351164"><ele>74.0</ele><time>2026-04-24T10:01:13.999Z</time></trkpt><trkpt lat="49.139892806735766" lon="2.50462363820193"><ele>74.0</ele><time>2026-04-24T10:01:16.999Z</time></trkpt><trkpt lat="49.139807463107935" lon="2.50462799279545"><ele>74.0</ele><time>2026-04-24T10:01:19.998Z</time></trkpt><trkpt lat="49.13972103424247" lon="2.5046292302082014"><ele>74.0</ele><time>2026-04-24T10:01:22.998Z</time></trkpt><trkpt lat="49.13963696114193" lon="2.5046328140496517"><ele>74.0</ele><time>2026-04-24T10:01:25.998Z</time></trkpt><trkpt lat="49.139559122049626" lon="2.5046381200298966"><ele>74.16666666666667</ele><time>2026-04-24T10:01:28.998Z</time></trkpt><trkpt lat="49.13947785999536" lon="2.504648767763543"><ele>74.33333333333334</ele><time>2026-04-24T10:01:31.998Z</time></trkpt><trkpt lat="49.13939080822445" lon="2.504653953824463"><ele>74.5</ele><time>2026-04-24T10:01:34.998Z</time></trkpt><trkpt lat="49.139295845450285" lon="2.504651559196091"><ele>74.66666666666667</ele><time>2026-04-24T10:01:37.998Z</time></trkpt><trkpt lat="49.13920918208762" lon="2.5046577176747777"><ele>74.83333333333333</ele><time>2026-04-24T10:01:40.998Z</time></trkpt><trkpt lat="49.139135558939046" lon="2.5046375395892015"><ele>75.0</ele><time>2026-04-24T10:01:43.998Z</time></trkpt><trkpt lat="49.13906742478309" lon="2.5046374214265126"><ele>75.16666666666667</ele><time>2026-04-24T10:01:46.998Z</time></trkpt><trkpt lat="49.13900196544398" lon="2.5046432052339105"><ele>75.33333333333333</ele><time>2026-04-24T10:01:56.997Z</time></trkpt><trkpt lat="49.13892451489949" lon="2.5046309843202117"><ele>75.5</ele><time>2026-04-24T10:02:00.997Z</time></trkpt><trkpt lat="49.13883967703191" lon="2.5046288906572722"><ele>75.66666666666666</ele><time>2026-04-24T10:02:04.997Z</time></trkpt><trkpt lat="49.13876816354471" lon="2.504632093668402"><ele>75.83333333333333</ele><time>2026-04-24T10:02:07.997Z</time></trkpt><trkpt lat="49.1386887368709" lon="2.5046377204168313"><ele>76.0</ele><time>2026-04-24T10:02:11.997Z</time></trkpt><trkpt lat="49.1386078004868" lon="2.504641141020043"><ele>76.0</ele><time>2026-04-24T10:02:15.997Z</time></trkpt><trkpt lat="49.13854220885328" lon="2.5046472654023515"><ele>76.0</ele><time>2026-04-24T10:02:18.997Z</time></trkpt><trkpt lat="49.138472803559615" lon="2.504662225654454"><ele>76.0</ele><time>2026-04-24T10:02:21.997Z</time></trkpt><trkpt lat="49.13840528111673" lon="2.5046850621411894"><ele>76.0</ele><time>2026-04-24T10:02:24.996Z</time></trkpt><trkpt lat="49.138333360918224" lon="2.5047007576193083"><ele>76.0</ele><time>2026-04-24T10:02:27.996Z</time></trkpt><trkpt lat="49.138262357875" lon="2.5047146914895393"><ele>76.0</ele><time>2026-04-24T10:02:30.996Z</time></trkpt><trkpt lat="49.13817737212814" lon="2.504727253672377"><ele>76.0</ele><time>2026-04-24T10:02:34.996Z</time></trkpt><trkpt lat="49.1381112042291" lon="2.50474058794452"><ele>76.14285714285714</ele><time>2026-04-24T10:02:38Z</time></trkpt><trkpt lat="49.138047398743744" lon="2.5047560955529455"><ele>76.28571428571429</ele><time>2026-04-24T10:02:41Z</time></trkpt><trkpt lat="49.13798798912267" lon="2.50479621630696"><ele>76.42857142857143</ele><time>2026-04-24T10:02:44Z</time></trkpt><trkpt lat="49.13793252974206" lon="2.5048854716679014"><ele>76.57142857142857</ele><time>2026-04-24T10:02:48Z</time></trkpt><trkpt lat="49.13789687265426" lon="2.5049649444625244"><ele>76.71428571428572</ele><time>2026-04-24T10:02:51Z</time></trkpt><trkpt lat="49.13784526301584" lon="2.505049348095745"><ele>76.85714285714286</ele><time>2026-04-24T10:02:54.999Z</time></trkpt><trkpt lat="49.13777362838885" lon="2.505109635287337"><ele>77.0</ele><time>2026-04-24T10:02:58.999Z</time></trkpt><trkpt lat="49.13770654590735" lon="2.5051657408563184"><ele>77.0</ele><time>2026-04-24T10:03:02.999Z</time></trkpt><trkpt lat="49.13764924380488" lon="2.505248111557707"><ele>77.0</ele><time>2026-04-24T10:03:06.999Z</time></trkpt><trkpt lat="49.13759784139645" lon="2.5053291761355045"><ele>77.0</ele><time>2026-04-24T10:03:10.999Z</time></trkpt><trkpt lat="49.13756090323267" lon="2.5054088056114767"><ele>77.0</ele><time>2026-04-24T10:03:14.999Z</time></trkpt><trkpt lat="49.137520358517044" lon="2.505501667417315"><ele>77.0</ele><time>2026-04-24T10:03:19.999Z</time></trkpt><trkpt lat="49.13746699220811" lon="2.5055899901914804"><ele>77.0</ele><time>2026-04-24T10:03:23.999Z</time></trkpt><trkpt lat="49.1374176430506" lon="2.505658149377068"><ele>77.0</ele><time>2026-04-24T10:03:27.998Z</time></trkpt><trkpt lat="49.13736687288162" lon="2.5057500652156826"><ele>77.5</ele><time>2026-04-24T10:03:32.998Z</time></trkpt><trkpt lat="49.13730805960536" lon="2.5058446927697635"><ele>78.0</ele><time>2026-04-24T10:03:36.998Z</time></trkpt><trkpt lat="49.1372555071329" lon="2.5059255303239425"><ele>78.5</ele><time>2026-04-24T10:03:40.998Z</time></trkpt><trkpt lat="49.137201739682105" lon="2.5060038055162384"><ele>79.0</ele><time>2026-04-24T10:03:44.998Z</time></trkpt><trkpt lat="49.13715244788844" lon="2.5060879481217144"><ele>79.5</ele><time>2026-04-24T10:03:48.998Z</time></trkpt><trkpt lat="49.13711028736423" lon="2.5061808900565334"><ele>80.0</ele><time>2026-04-24T10:04:16.997Z</time></trkpt><trkpt lat="49.137054801937175" lon="2.5062760603485095"><ele>80.0</ele><time>2026-04-24T10:04:21.997Z</time></trkpt><trkpt lat="49.13699971584171" lon="2.5063751544888695"><ele>80.0</ele><time>2026-04-24T10:04:25.997Z</time></trkpt><trkpt lat="49.136947993335305" lon="2.5064532874020298"><ele>80.0</ele><time>2026-04-24T10:04:29.996Z</time></trkpt><trkpt lat="49.136884683832626" lon="2.5065224491392044"><ele>80.0</ele><time>2026-04-24T10:04:33.996Z</time></trkpt><trkpt lat="49.13683057811703" lon="2.506591711689785"><ele>80.0</ele><time>2026-04-24T10:04:37.996Z</time></trkpt><trkpt lat="49.13676423006824" lon="2.50665797126104"><ele>80.0</ele><time>2026-04-24T10:04:41.996Z</time></trkpt><trkpt lat="49.136712671310455" lon="2.5067357810022655"><ele>80.0</ele><time>2026-04-24T10:04:47Z</time></trkpt><trkpt lat="49.13664520086599" lon="2.5067810683087397"><ele>80.0</ele><time>2026-04-24T10:04:51Z</time></trkpt><trkpt lat="49.1365707555045" lon="2.5068228706205615"><ele>80.0</ele><time>2026-04-24T10:04:54Z</time></trkpt><trkpt lat="49.136500318338086" lon="2.5068844888516284"><ele>80.0</ele><time>2026-04-24T10:04:58Z</time></trkpt><trkpt lat="49.13643217805464" lon="2.5069228127254317"><ele>80.0</ele><time>2026-04-24T10:05:00.999Z</time></trkpt><trkpt lat="49.13637131827443" lon="2.5069721829707405"><ele>80.0</ele><time>2026-04-24T10:05:03.999Z</time></trkpt><trkpt lat="49.136320429270455" lon="2.507053547694653"><ele>80.0</ele><time>2026-04-24T10:05:06.999Z</time></trkpt><trkpt lat="49.136267228927395" lon="2.507111785335619"><ele>79.28571428571428</ele><time>2026-04-24T10:05:10.999Z</time></trkpt><trkpt lat="49.13619752256615" lon="2.507097485140338"><ele>78.57142857142857</ele><time>2026-04-24T10:05:13.999Z</time></trkpt><trkpt lat="49.136129985632316" lon="2.5071062563250774"><ele>77.85714285714286</ele><time>2026-04-24T10:05:18.999Z</time></trkpt><trkpt lat="49.13605224805429" lon="2.50709308112522"><ele>77.14285714285714</ele><time>2026-04-24T10:05:24.999Z</time></trkpt><trkpt lat="49.13598369345908" lon="2.507130184045546"><ele>76.42857142857143</ele><time>2026-04-24T10:05:28.999Z</time></trkpt><trkpt lat="49.13591841245026" lon="2.507175538653691"><ele>75.71428571428571</ele><time>2026-04-24T10:05:32.998Z</time></trkpt><trkpt lat="49.13585416893188" lon="2.5071987796341872"><ele>75.0</ele><time>2026-04-24T10:05:36.998Z</time></trkpt><trkpt lat="49.135791363250554" lon="2.5072067882678484"><ele>74.99999999999999</ele><time>2026-04-24T10:05:39.998Z</time></trkpt><trkpt lat="49.13572550287771" lon="2.5071906300634863"><ele>75.0</ele><time>2026-04-24T10:05:42.998Z</time></trkpt><trkpt lat="49.13566209581346" lon="2.507201745229168"><ele>75.0</ele><time>2026-04-24T10:05:45.998Z</time></trkpt><trkpt lat="49.13559636844717" lon="2.5072112215308495"><ele>75.0</ele><time>2026-04-24T10:05:48.998Z</time></trkpt><trkpt lat="49.13551613270939" lon="2.5071807509392623"><ele>75.0</ele><time>2026-04-24T10:05:52.998Z</time></trkpt><trkpt lat="49.1354376372532" lon="2.5071888018238333"><ele>74.99999999999999</ele><time>2026-04-24T10:05:56.998Z</time></trkpt><trkpt lat="49.13537504628973" lon="2.507175779864992"><ele>75.0</ele><time>2026-04-24T10:05:59.998Z</time></trkpt><trkpt lat="49.13529689462889" lon="2.5071525117576026"><ele>74.99999999999999</ele><time>2026-04-24T10:06:03.997Z</time></trkpt><trkpt lat="49.13522881892729" lon="2.5071167558692684"><ele>75.0</ele><time>2026-04-24T10:06:07.997Z</time></trkpt><trkpt lat="49.135158355215964" lon="2.5071095314655847"><ele>75.0</ele><time>2026-04-24T10:06:11.997Z</time></trkpt><trkpt lat="49.13508871191075" lon="2.5071040119844743"><ele>75.0</ele><time>2026-04-24T10:06:15.997Z</time></trkpt><trkpt lat="49.13501559105325" lon="2.5070927024536003"><ele>75.0</ele><time>2026-04-24T10:06:19.997Z</time></trkpt><trkpt lat="49.13494955833719" lon="2.507071922525731"><ele>74.99999999999999</ele><time>2026-04-24T10:06:23.997Z</time></trkpt><trkpt lat="49.13488749725015" lon="2.507051235751409"><ele>75.0</ele><time>2026-04-24T10:06:27.997Z</time></trkpt><trkpt lat="49.13482443389804" lon="2.50703511200617"><ele>75.71428571428571</ele><time>2026-04-24T10:06:31.997Z</time></trkpt><trkpt lat="49.134759323265094" lon="2.5070115770384995"><ele>76.42857142857143</ele><time>2026-04-24T10:06:35.996Z</time></trkpt><trkpt lat="49.13469773181396" lon="2.5069801000006664"><ele>77.14285714285714</ele><time>2026-04-24T10:06:39.996Z</time></trkpt><trkpt lat="49.13462918227664" lon="2.506946743917677"><ele>77.85714285714286</ele><time>2026-04-24T10:06:43.996Z</time></trkpt><trkpt lat="49.13454915666428" lon="2.5069388731083335"><ele>78.57142857142857</ele><time>2026-04-24T10:06:48Z</time></trkpt><trkpt lat="49.13447954019098" lon="2.5068741131955727"><ele>79.28571428571428</ele><time>2026-04-24T10:06:52Z</time></trkpt><trkpt lat="49.13440720258442" lon="2.506828317227437"><ele>80.0</ele><time>2026-04-24T10:06:56Z</time></trkpt><trkpt lat="49.134346217140056" lon="2.506788106940643"><ele>80.0</ele><time>2026-04-24T10:06:59Z</time></trkpt><trkpt lat="49.13427953978146" lon="2.506755820637236"><ele>80.0</ele><time>2026-04-24T10:07:02Z</time></trkpt><trkpt lat="49.134204784665805" lon="2.506795731742549"><ele>80.0</ele><time>2026-04-24T10:07:04.999Z</time></trkpt><trkpt lat="49.134174810123326" lon="2.506914610225795"><ele>80.0</ele><time>2026-04-24T10:07:06.999Z</time></trkpt><trkpt lat="49.13414140220396" lon="2.5069989759027074"><ele>80.0</ele><time>2026-04-24T10:07:08.999Z</time></trkpt><trkpt lat="49.13409255505058" lon="2.507112473714903"><ele>80.0</ele><time>2026-04-24T10:07:11.999Z</time></trkpt><trkpt lat="49.13404967112922" lon="2.5072205987614122"><ele>79.71428571428571</ele><time>2026-04-24T10:07:14.999Z</time></trkpt><trkpt lat="49.13400505553023" lon="2.50732044611163"><ele>79.42857142857143</ele><time>2026-04-24T10:07:17.999Z</time></trkpt><trkpt lat="49.13397048534717" lon="2.507411923935407"><ele>79.14285714285714</ele><time>2026-04-24T10:07:20.999Z</time></trkpt><trkpt lat="49.13392608509378" lon="2.5075120231560146"><ele>78.85714285714286</ele><time>2026-04-24T10:07:24.999Z</time></trkpt><trkpt lat="49.133892594267955" lon="2.507602960921956"><ele>78.57142857142857</ele><time>2026-04-24T10:07:28.999Z</time></trkpt><trkpt lat="49.13385407233805" lon="2.5076971647203177"><ele>78.28571428571429</ele><time>2026-04-24T10:07:32.999Z</time></trkpt><trkpt lat="49.133819446152685" lon="2.507794085129756"><ele>78.0</ele><time>2026-04-24T10:07:36.998Z</time></trkpt><trkpt lat="49.13379563648252" lon="2.5079115507098857"><ele>78.0</ele><time>2026-04-24T10:07:40.998Z</time></trkpt><trkpt lat="49.13375072503669" lon="2.508002036297165"><ele>78.0</ele><time>2026-04-24T10:07:44.998Z</time></trkpt><trkpt lat="49.13368423672667" lon="2.508019010018527"><ele>78.0</ele><time>2026-04-24T10:07:58.998Z</time></trkpt><trkpt lat="49.133630572283366" lon="2.5079633615446655"><ele>78.0</ele><time>2026-04-24T10:08:26.997Z</time></trkpt><trkpt lat="49.133580321233254" lon="2.507903571549102"><ele>77.0</ele><time>2026-04-24T10:08:44.996Z</time></trkpt></trkseg></trk></gpx>